<?xml version="1.0" encoding="UTF-8" standalone="no" ?>
<gpx xmlns="http://www.topografix.com/GPX/1/1" xmlns:xsi="http://www.w3.org/2001/XMLSchema-instance" xsi:schemaLocation="http://www.topografix.com/GPX/1/1 http://www.topografix.com/GPX/1/1/gpx.xsd" version="1.1" creator="VisuGPX - https://www.visugpx.com">
  <metadata>
    <name>Anet - Vallée aux Cailles et Foret de Dreux</name>
  </metadata>
  <trk>
    <name><![CDATA[Randonnée du 07/04/2022 à 09:32]]></name>
    <trkseg>
      <trkpt lat="48.85799" lon="1.44103">
        <ele>65</ele>
        <time>2022-04-07T09:32:50+02:00</time>
      </trkpt>
      <trkpt lat="48.85799" lon="1.44138">
        <ele>62</ele>
        <time>2022-04-07T09:38:10+02:00</time>
      </trkpt>
      <trkpt lat="48.858" lon="1.44173">
        <ele>64</ele>
        <time>2022-04-07T09:38:30+02:00</time>
      </trkpt>
      <trkpt lat="48.85803" lon="1.44207">
        <ele>65</ele>
        <time>2022-04-07T09:38:50+02:00</time>
      </trkpt>
      <trkpt lat="48.85806" lon="1.44242">
        <ele>65</ele>
        <time>2022-04-07T09:39:09+02:00</time>
      </trkpt>
      <trkpt lat="48.8581" lon="1.44277">
        <ele>64</ele>
        <time>2022-04-07T09:39:27+02:00</time>
      </trkpt>
      <trkpt lat="48.8581" lon="1.44312">
        <ele>65</ele>
        <time>2022-04-07T09:39:45+02:00</time>
      </trkpt>
      <trkpt lat="48.85816" lon="1.44346">
        <ele>64</ele>
        <time>2022-04-07T09:40:03+02:00</time>
      </trkpt>
      <trkpt lat="48.85818" lon="1.44381">
        <ele>65</ele>
        <time>2022-04-07T09:40:21+02:00</time>
      </trkpt>
      <trkpt lat="48.8582" lon="1.44415">
        <ele>64</ele>
        <time>2022-04-07T09:40:40+02:00</time>
      </trkpt>
      <trkpt lat="48.85825" lon="1.4445">
        <ele>65</ele>
        <time>2022-04-07T09:40:57+02:00</time>
      </trkpt>
      <trkpt lat="48.8583" lon="1.44484">
        <ele>64</ele>
        <time>2022-04-07T09:41:16+02:00</time>
      </trkpt>
      <trkpt lat="48.85813" lon="1.44509">
        <ele>64</ele>
        <time>2022-04-07T09:41:35+02:00</time>
      </trkpt>
      <trkpt lat="48.85791" lon="1.44515">
        <ele>65</ele>
        <time>2022-04-07T09:41:53+02:00</time>
      </trkpt>
      <trkpt lat="48.85768" lon="1.44519">
        <ele>66</ele>
        <time>2022-04-07T09:42:12+02:00</time>
      </trkpt>
      <trkpt lat="48.85745" lon="1.44519">
        <ele>67</ele>
        <time>2022-04-07T09:42:27+02:00</time>
      </trkpt>
      <trkpt lat="48.85721" lon="1.44525">
        <ele>66</ele>
        <time>2022-04-07T09:42:44+02:00</time>
      </trkpt>
      <trkpt lat="48.85699" lon="1.44527">
        <ele>68</ele>
        <time>2022-04-07T09:43:01+02:00</time>
      </trkpt>
      <trkpt lat="48.8568" lon="1.44546">
        <ele>67</ele>
        <time>2022-04-07T09:43:21+02:00</time>
      </trkpt>
      <trkpt lat="48.8569" lon="1.44576">
        <ele>68</ele>
        <time>2022-04-07T09:43:42+02:00</time>
      </trkpt>
      <trkpt lat="48.857" lon="1.44609">
        <ele>67</ele>
        <time>2022-04-07T09:43:59+02:00</time>
      </trkpt>
      <trkpt lat="48.8571" lon="1.44641">
        <ele>65</ele>
        <time>2022-04-07T09:44:17+02:00</time>
      </trkpt>
      <trkpt lat="48.85717" lon="1.44675">
        <ele>66</ele>
        <time>2022-04-07T09:44:33+02:00</time>
      </trkpt>
      <trkpt lat="48.85724" lon="1.44709">
        <ele>66</ele>
        <time>2022-04-07T09:44:50+02:00</time>
      </trkpt>
      <trkpt lat="48.85735" lon="1.44741">
        <ele>66</ele>
        <time>2022-04-07T09:45:08+02:00</time>
      </trkpt>
      <trkpt lat="48.85747" lon="1.44769">
        <ele>66</ele>
        <time>2022-04-07T09:45:25+02:00</time>
      </trkpt>
      <trkpt lat="48.8575" lon="1.44804">
        <ele>64</ele>
        <time>2022-04-07T09:45:41+02:00</time>
      </trkpt>
      <trkpt lat="48.85751" lon="1.44839">
        <ele>65</ele>
        <time>2022-04-07T09:45:58+02:00</time>
      </trkpt>
      <trkpt lat="48.85752" lon="1.44874">
        <ele>64</ele>
        <time>2022-04-07T09:46:15+02:00</time>
      </trkpt>
      <trkpt lat="48.85753" lon="1.44909">
        <ele>67</ele>
        <time>2022-04-07T09:46:32+02:00</time>
      </trkpt>
      <trkpt lat="48.85754" lon="1.44945">
        <ele>67</ele>
        <time>2022-04-07T09:46:48+02:00</time>
      </trkpt>
      <trkpt lat="48.85755" lon="1.44981">
        <ele>66</ele>
        <time>2022-04-07T09:47:06+02:00</time>
      </trkpt>
      <trkpt lat="48.85758" lon="1.45015">
        <ele>64</ele>
        <time>2022-04-07T09:47:23+02:00</time>
      </trkpt>
      <trkpt lat="48.85761" lon="1.4505">
        <ele>64</ele>
        <time>2022-04-07T09:47:40+02:00</time>
      </trkpt>
      <trkpt lat="48.85765" lon="1.45085">
        <ele>65</ele>
        <time>2022-04-07T09:47:57+02:00</time>
      </trkpt>
      <trkpt lat="48.85769" lon="1.45119">
        <ele>64</ele>
        <time>2022-04-07T09:48:14+02:00</time>
      </trkpt>
      <trkpt lat="48.85774" lon="1.45153">
        <ele>65</ele>
        <time>2022-04-07T09:48:31+02:00</time>
      </trkpt>
      <trkpt lat="48.85782" lon="1.45186">
        <ele>67</ele>
        <time>2022-04-07T09:48:48+02:00</time>
      </trkpt>
      <trkpt lat="48.85792" lon="1.45218">
        <ele>65</ele>
        <time>2022-04-07T09:49:05+02:00</time>
      </trkpt>
      <trkpt lat="48.85804" lon="1.45248">
        <ele>64</ele>
        <time>2022-04-07T09:49:22+02:00</time>
      </trkpt>
      <trkpt lat="48.85814" lon="1.45279">
        <ele>65</ele>
        <time>2022-04-07T09:49:38+02:00</time>
      </trkpt>
      <trkpt lat="48.85822" lon="1.45312">
        <ele>65</ele>
        <time>2022-04-07T09:49:55+02:00</time>
      </trkpt>
      <trkpt lat="48.85824" lon="1.45346">
        <ele>67</ele>
        <time>2022-04-07T09:50:12+02:00</time>
      </trkpt>
      <trkpt lat="48.85828" lon="1.4538">
        <ele>66</ele>
        <time>2022-04-07T09:50:29+02:00</time>
      </trkpt>
      <trkpt lat="48.85838" lon="1.45411">
        <ele>69</ele>
        <time>2022-04-07T09:50:46+02:00</time>
      </trkpt>
      <trkpt lat="48.85852" lon="1.4544">
        <ele>67</ele>
        <time>2022-04-07T09:51:03+02:00</time>
      </trkpt>
      <trkpt lat="48.85868" lon="1.45466">
        <ele>67</ele>
        <time>2022-04-07T09:51:20+02:00</time>
      </trkpt>
      <trkpt lat="48.85883" lon="1.45491">
        <ele>66</ele>
        <time>2022-04-07T09:51:36+02:00</time>
      </trkpt>
      <trkpt lat="48.85898" lon="1.45519">
        <ele>67</ele>
        <time>2022-04-07T09:51:52+02:00</time>
      </trkpt>
      <trkpt lat="48.85911" lon="1.45547">
        <ele>66</ele>
        <time>2022-04-07T09:52:08+02:00</time>
      </trkpt>
      <trkpt lat="48.85925" lon="1.45574">
        <ele>65</ele>
        <time>2022-04-07T09:52:24+02:00</time>
      </trkpt>
      <trkpt lat="48.85937" lon="1.45604">
        <ele>66</ele>
        <time>2022-04-07T09:52:40+02:00</time>
      </trkpt>
      <trkpt lat="48.8595" lon="1.45633">
        <ele>66</ele>
        <time>2022-04-07T09:52:56+02:00</time>
      </trkpt>
      <trkpt lat="48.85961" lon="1.45665">
        <ele>66</ele>
        <time>2022-04-07T09:53:13+02:00</time>
      </trkpt>
      <trkpt lat="48.85974" lon="1.45695">
        <ele>67</ele>
        <time>2022-04-07T09:53:30+02:00</time>
      </trkpt>
      <trkpt lat="48.85986" lon="1.45727">
        <ele>67</ele>
        <time>2022-04-07T09:53:47+02:00</time>
      </trkpt>
      <trkpt lat="48.85998" lon="1.45758">
        <ele>66</ele>
        <time>2022-04-07T09:54:04+02:00</time>
      </trkpt>
      <trkpt lat="48.86008" lon="1.45789">
        <ele>65</ele>
        <time>2022-04-07T09:54:20+02:00</time>
      </trkpt>
      <trkpt lat="48.86015" lon="1.45824">
        <ele>65</ele>
        <time>2022-04-07T09:54:38+02:00</time>
      </trkpt>
      <trkpt lat="48.86023" lon="1.45857">
        <ele>66</ele>
        <time>2022-04-07T09:54:55+02:00</time>
      </trkpt>
      <trkpt lat="48.86029" lon="1.45891">
        <ele>66</ele>
        <time>2022-04-07T09:55:12+02:00</time>
      </trkpt>
      <trkpt lat="48.86016" lon="1.45921">
        <ele>67</ele>
        <time>2022-04-07T09:55:31+02:00</time>
      </trkpt>
      <trkpt lat="48.85995" lon="1.45934">
        <ele>68</ele>
        <time>2022-04-07T09:55:48+02:00</time>
      </trkpt>
      <trkpt lat="48.85974" lon="1.45946">
        <ele>71</ele>
        <time>2022-04-07T09:56:06+02:00</time>
      </trkpt>
      <trkpt lat="48.85952" lon="1.45959">
        <ele>70</ele>
        <time>2022-04-07T09:56:24+02:00</time>
      </trkpt>
      <trkpt lat="48.8593" lon="1.45969">
        <ele>71</ele>
        <time>2022-04-07T09:56:42+02:00</time>
      </trkpt>
      <trkpt lat="48.85908" lon="1.45981">
        <ele>70</ele>
        <time>2022-04-07T09:57:00+02:00</time>
      </trkpt>
      <trkpt lat="48.85885" lon="1.4599">
        <ele>71</ele>
        <time>2022-04-07T09:57:16+02:00</time>
      </trkpt>
      <trkpt lat="48.85863" lon="1.46002">
        <ele>72</ele>
        <time>2022-04-07T09:57:34+02:00</time>
      </trkpt>
      <trkpt lat="48.85842" lon="1.46012">
        <ele>70</ele>
        <time>2022-04-07T09:57:53+02:00</time>
      </trkpt>
      <trkpt lat="48.85824" lon="1.45988">
        <ele>70</ele>
        <time>2022-04-07T09:58:18+02:00</time>
      </trkpt>
      <trkpt lat="48.85812" lon="1.45957">
        <ele>72</ele>
        <time>2022-04-07T09:58:37+02:00</time>
      </trkpt>
      <trkpt lat="48.85799" lon="1.45929">
        <ele>73</ele>
        <time>2022-04-07T09:58:55+02:00</time>
      </trkpt>
      <trkpt lat="48.85785" lon="1.45898">
        <ele>74</ele>
        <time>2022-04-07T09:59:14+02:00</time>
      </trkpt>
      <trkpt lat="48.8577" lon="1.45872">
        <ele>74</ele>
        <time>2022-04-07T09:59:32+02:00</time>
      </trkpt>
      <trkpt lat="48.85751" lon="1.45853">
        <ele>73</ele>
        <time>2022-04-07T09:59:51+02:00</time>
      </trkpt>
      <trkpt lat="48.85733" lon="1.4583">
        <ele>73</ele>
        <time>2022-04-07T10:00:10+02:00</time>
      </trkpt>
      <trkpt lat="48.85718" lon="1.45803">
        <ele>74</ele>
        <time>2022-04-07T10:00:29+02:00</time>
      </trkpt>
      <trkpt lat="48.8571" lon="1.45771">
        <ele>75</ele>
        <time>2022-04-07T10:00:46+02:00</time>
      </trkpt>
      <trkpt lat="48.85703" lon="1.45737">
        <ele>78</ele>
        <time>2022-04-07T10:01:04+02:00</time>
      </trkpt>
      <trkpt lat="48.85691" lon="1.45707">
        <ele>74</ele>
        <time>2022-04-07T10:01:20+02:00</time>
      </trkpt>
      <trkpt lat="48.85678" lon="1.45679">
        <ele>76</ele>
        <time>2022-04-07T10:01:39+02:00</time>
      </trkpt>
      <trkpt lat="48.85666" lon="1.4565">
        <ele>74</ele>
        <time>2022-04-07T10:01:57+02:00</time>
      </trkpt>
      <trkpt lat="48.85652" lon="1.45621">
        <ele>76</ele>
        <time>2022-04-07T10:02:15+02:00</time>
      </trkpt>
      <trkpt lat="48.85638" lon="1.45593">
        <ele>75</ele>
        <time>2022-04-07T10:02:33+02:00</time>
      </trkpt>
      <trkpt lat="48.85623" lon="1.45568">
        <ele>78</ele>
        <time>2022-04-07T10:02:50+02:00</time>
      </trkpt>
      <trkpt lat="48.85605" lon="1.45544">
        <ele>76</ele>
        <time>2022-04-07T10:03:08+02:00</time>
      </trkpt>
      <trkpt lat="48.85589" lon="1.45521">
        <ele>77</ele>
        <time>2022-04-07T10:03:27+02:00</time>
      </trkpt>
      <trkpt lat="48.85572" lon="1.45496">
        <ele>78</ele>
        <time>2022-04-07T10:03:45+02:00</time>
      </trkpt>
      <trkpt lat="48.85557" lon="1.45469">
        <ele>79</ele>
        <time>2022-04-07T10:04:02+02:00</time>
      </trkpt>
      <trkpt lat="48.85541" lon="1.45444">
        <ele>75</ele>
        <time>2022-04-07T10:04:20+02:00</time>
      </trkpt>
      <trkpt lat="48.85525" lon="1.45419">
        <ele>76</ele>
        <time>2022-04-07T10:04:38+02:00</time>
      </trkpt>
      <trkpt lat="48.85509" lon="1.45397">
        <ele>80</ele>
        <time>2022-04-07T10:04:56+02:00</time>
      </trkpt>
      <trkpt lat="48.8549" lon="1.45373">
        <ele>81</ele>
        <time>2022-04-07T10:05:14+02:00</time>
      </trkpt>
      <trkpt lat="48.85472" lon="1.45353">
        <ele>81</ele>
        <time>2022-04-07T10:05:33+02:00</time>
      </trkpt>
      <trkpt lat="48.85453" lon="1.45333">
        <ele>83</ele>
        <time>2022-04-07T10:05:52+02:00</time>
      </trkpt>
      <trkpt lat="48.85434" lon="1.45314">
        <ele>84</ele>
        <time>2022-04-07T10:06:11+02:00</time>
      </trkpt>
      <trkpt lat="48.85415" lon="1.45296">
        <ele>89</ele>
        <time>2022-04-07T10:06:31+02:00</time>
      </trkpt>
      <trkpt lat="48.85395" lon="1.45277">
        <ele>87</ele>
        <time>2022-04-07T10:06:55+02:00</time>
      </trkpt>
      <trkpt lat="48.85374" lon="1.45266">
        <ele>88</ele>
        <time>2022-04-07T10:07:17+02:00</time>
      </trkpt>
      <trkpt lat="48.85352" lon="1.45255">
        <ele>92</ele>
        <time>2022-04-07T10:07:38+02:00</time>
      </trkpt>
      <trkpt lat="48.85331" lon="1.45239">
        <ele>94</ele>
        <time>2022-04-07T10:08:04+02:00</time>
      </trkpt>
      <trkpt lat="48.85309" lon="1.4523">
        <ele>96</ele>
        <time>2022-04-07T10:08:28+02:00</time>
      </trkpt>
      <trkpt lat="48.85288" lon="1.45218">
        <ele>99</ele>
        <time>2022-04-07T10:10:39+02:00</time>
      </trkpt>
      <trkpt lat="48.85265" lon="1.45211">
        <ele>97</ele>
        <time>2022-04-07T10:11:02+02:00</time>
      </trkpt>
      <trkpt lat="48.85244" lon="1.45199">
        <ele>100</ele>
        <time>2022-04-07T10:11:28+02:00</time>
      </trkpt>
      <trkpt lat="48.85222" lon="1.45189">
        <ele>103</ele>
        <time>2022-04-07T10:12:11+02:00</time>
      </trkpt>
      <trkpt lat="48.85198" lon="1.45184">
        <ele>104</ele>
        <time>2022-04-07T10:12:31+02:00</time>
      </trkpt>
      <trkpt lat="48.85175" lon="1.45179">
        <ele>105</ele>
        <time>2022-04-07T10:12:50+02:00</time>
      </trkpt>
      <trkpt lat="48.85152" lon="1.45174">
        <ele>108</ele>
        <time>2022-04-07T10:13:09+02:00</time>
      </trkpt>
      <trkpt lat="48.85129" lon="1.45166">
        <ele>110</ele>
        <time>2022-04-07T10:13:30+02:00</time>
      </trkpt>
      <trkpt lat="48.85106" lon="1.45158">
        <ele>113</ele>
        <time>2022-04-07T10:13:50+02:00</time>
      </trkpt>
      <trkpt lat="48.85084" lon="1.45148">
        <ele>115</ele>
        <time>2022-04-07T10:14:10+02:00</time>
      </trkpt>
      <trkpt lat="48.85063" lon="1.4516">
        <ele>117</ele>
        <time>2022-04-07T10:14:35+02:00</time>
      </trkpt>
      <trkpt lat="48.85052" lon="1.4519">
        <ele>116</ele>
        <time>2022-04-07T10:14:56+02:00</time>
      </trkpt>
      <trkpt lat="48.85039" lon="1.4522">
        <ele>115</ele>
        <time>2022-04-07T10:15:15+02:00</time>
      </trkpt>
      <trkpt lat="48.85028" lon="1.4525">
        <ele>113</ele>
        <time>2022-04-07T10:15:33+02:00</time>
      </trkpt>
      <trkpt lat="48.85018" lon="1.45281">
        <ele>113</ele>
        <time>2022-04-07T10:15:50+02:00</time>
      </trkpt>
      <trkpt lat="48.85007" lon="1.45311">
        <ele>110</ele>
        <time>2022-04-07T10:16:10+02:00</time>
      </trkpt>
      <trkpt lat="48.84994" lon="1.45339">
        <ele>109</ele>
        <time>2022-04-07T10:16:29+02:00</time>
      </trkpt>
      <trkpt lat="48.84976" lon="1.45363">
        <ele>106</ele>
        <time>2022-04-07T10:16:50+02:00</time>
      </trkpt>
      <trkpt lat="48.84961" lon="1.45387">
        <ele>109</ele>
        <time>2022-04-07T10:17:10+02:00</time>
      </trkpt>
      <trkpt lat="48.84945" lon="1.45412">
        <ele>107</ele>
        <time>2022-04-07T10:17:31+02:00</time>
      </trkpt>
      <trkpt lat="48.84931" lon="1.45439">
        <ele>106</ele>
        <time>2022-04-07T10:17:53+02:00</time>
      </trkpt>
      <trkpt lat="48.84915" lon="1.45463">
        <ele>104</ele>
        <time>2022-04-07T10:18:12+02:00</time>
      </trkpt>
      <trkpt lat="48.84898" lon="1.45487">
        <ele>102</ele>
        <time>2022-04-07T10:18:29+02:00</time>
      </trkpt>
      <trkpt lat="48.84883" lon="1.45513">
        <ele>98</ele>
        <time>2022-04-07T10:18:47+02:00</time>
      </trkpt>
      <trkpt lat="48.84869" lon="1.45542">
        <ele>96</ele>
        <time>2022-04-07T10:19:06+02:00</time>
      </trkpt>
      <trkpt lat="48.84854" lon="1.45569">
        <ele>94</ele>
        <time>2022-04-07T10:19:23+02:00</time>
      </trkpt>
      <trkpt lat="48.84842" lon="1.45598">
        <ele>89</ele>
        <time>2022-04-07T10:19:41+02:00</time>
      </trkpt>
      <trkpt lat="48.84831" lon="1.45628">
        <ele>88</ele>
        <time>2022-04-07T10:19:57+02:00</time>
      </trkpt>
      <trkpt lat="48.84823" lon="1.45662">
        <ele>85</ele>
        <time>2022-04-07T10:20:14+02:00</time>
      </trkpt>
      <trkpt lat="48.84816" lon="1.45697">
        <ele>83</ele>
        <time>2022-04-07T10:20:30+02:00</time>
      </trkpt>
      <trkpt lat="48.8481" lon="1.45732">
        <ele>79</ele>
        <time>2022-04-07T10:20:48+02:00</time>
      </trkpt>
      <trkpt lat="48.84808" lon="1.45767">
        <ele>76</ele>
        <time>2022-04-07T10:21:05+02:00</time>
      </trkpt>
      <trkpt lat="48.84802" lon="1.45801">
        <ele>75</ele>
        <time>2022-04-07T10:21:22+02:00</time>
      </trkpt>
      <trkpt lat="48.84796" lon="1.45834">
        <ele>75</ele>
        <time>2022-04-07T10:21:39+02:00</time>
      </trkpt>
      <trkpt lat="48.84788" lon="1.45868">
        <ele>75</ele>
        <time>2022-04-07T10:21:55+02:00</time>
      </trkpt>
      <trkpt lat="48.84784" lon="1.45903">
        <ele>72</ele>
        <time>2022-04-07T10:22:13+02:00</time>
      </trkpt>
      <trkpt lat="48.84776" lon="1.45936">
        <ele>72</ele>
        <time>2022-04-07T10:22:30+02:00</time>
      </trkpt>
      <trkpt lat="48.84768" lon="1.45969">
        <ele>72</ele>
        <time>2022-04-07T10:22:47+02:00</time>
      </trkpt>
      <trkpt lat="48.84761" lon="1.46003">
        <ele>72</ele>
        <time>2022-04-07T10:23:05+02:00</time>
      </trkpt>
      <trkpt lat="48.84756" lon="1.46038">
        <ele>70</ele>
        <time>2022-04-07T10:23:24+02:00</time>
      </trkpt>
      <trkpt lat="48.8475" lon="1.46072">
        <ele>69</ele>
        <time>2022-04-07T10:23:42+02:00</time>
      </trkpt>
      <trkpt lat="48.84739" lon="1.46103">
        <ele>69</ele>
        <time>2022-04-07T10:23:59+02:00</time>
      </trkpt>
      <trkpt lat="48.84729" lon="1.46135">
        <ele>69</ele>
        <time>2022-04-07T10:24:17+02:00</time>
      </trkpt>
      <trkpt lat="48.84714" lon="1.4616">
        <ele>67</ele>
        <time>2022-04-07T10:24:33+02:00</time>
      </trkpt>
      <trkpt lat="48.84696" lon="1.46183">
        <ele>65</ele>
        <time>2022-04-07T10:24:51+02:00</time>
      </trkpt>
      <trkpt lat="48.84688" lon="1.46215">
        <ele>67</ele>
        <time>2022-04-07T10:25:16+02:00</time>
      </trkpt>
      <trkpt lat="48.84705" lon="1.4624">
        <ele>67</ele>
        <time>2022-04-07T10:25:45+02:00</time>
      </trkpt>
      <trkpt lat="48.84691" lon="1.46213">
        <ele>69</ele>
        <time>2022-04-07T10:29:50+02:00</time>
      </trkpt>
      <trkpt lat="48.84669" lon="1.46201">
        <ele>69</ele>
        <time>2022-04-07T10:33:33+02:00</time>
      </trkpt>
      <trkpt lat="48.84647" lon="1.46207">
        <ele>71</ele>
        <time>2022-04-07T10:33:56+02:00</time>
      </trkpt>
      <trkpt lat="48.84626" lon="1.46223">
        <ele>71</ele>
        <time>2022-04-07T10:34:19+02:00</time>
      </trkpt>
      <trkpt lat="48.84605" lon="1.46241">
        <ele>72</ele>
        <time>2022-04-07T10:34:39+02:00</time>
      </trkpt>
      <trkpt lat="48.84587" lon="1.46261">
        <ele>73</ele>
        <time>2022-04-07T10:34:59+02:00</time>
      </trkpt>
      <trkpt lat="48.8457" lon="1.46284">
        <ele>74</ele>
        <time>2022-04-07T10:35:19+02:00</time>
      </trkpt>
      <trkpt lat="48.8455" lon="1.46304">
        <ele>75</ele>
        <time>2022-04-07T10:35:41+02:00</time>
      </trkpt>
      <trkpt lat="48.84528" lon="1.46311">
        <ele>75</ele>
        <time>2022-04-07T10:36:04+02:00</time>
      </trkpt>
      <trkpt lat="48.84505" lon="1.46315">
        <ele>76</ele>
        <time>2022-04-07T10:36:23+02:00</time>
      </trkpt>
      <trkpt lat="48.84483" lon="1.46311">
        <ele>77</ele>
        <time>2022-04-07T10:36:42+02:00</time>
      </trkpt>
      <trkpt lat="48.8446" lon="1.46315">
        <ele>76</ele>
        <time>2022-04-07T10:37:02+02:00</time>
      </trkpt>
      <trkpt lat="48.84437" lon="1.46314">
        <ele>74</ele>
        <time>2022-04-07T10:37:20+02:00</time>
      </trkpt>
      <trkpt lat="48.84414" lon="1.46318">
        <ele>76</ele>
        <time>2022-04-07T10:37:39+02:00</time>
      </trkpt>
      <trkpt lat="48.84392" lon="1.46326">
        <ele>77</ele>
        <time>2022-04-07T10:37:57+02:00</time>
      </trkpt>
      <trkpt lat="48.84371" lon="1.46338">
        <ele>79</ele>
        <time>2022-04-07T10:38:15+02:00</time>
      </trkpt>
      <trkpt lat="48.84349" lon="1.46351">
        <ele>77</ele>
        <time>2022-04-07T10:38:34+02:00</time>
      </trkpt>
      <trkpt lat="48.84328" lon="1.46362">
        <ele>79</ele>
        <time>2022-04-07T10:38:53+02:00</time>
      </trkpt>
      <trkpt lat="48.84305" lon="1.46369">
        <ele>78</ele>
        <time>2022-04-07T10:39:12+02:00</time>
      </trkpt>
      <trkpt lat="48.84282" lon="1.46374">
        <ele>77</ele>
        <time>2022-04-07T10:39:30+02:00</time>
      </trkpt>
      <trkpt lat="48.84259" lon="1.46373">
        <ele>78</ele>
        <time>2022-04-07T10:39:48+02:00</time>
      </trkpt>
      <trkpt lat="48.84236" lon="1.46369">
        <ele>78</ele>
        <time>2022-04-07T10:40:06+02:00</time>
      </trkpt>
      <trkpt lat="48.84213" lon="1.4636">
        <ele>79</ele>
        <time>2022-04-07T10:40:25+02:00</time>
      </trkpt>
      <trkpt lat="48.84192" lon="1.46345">
        <ele>78</ele>
        <time>2022-04-07T10:40:44+02:00</time>
      </trkpt>
      <trkpt lat="48.84172" lon="1.46328">
        <ele>79</ele>
        <time>2022-04-07T10:41:02+02:00</time>
      </trkpt>
      <trkpt lat="48.84153" lon="1.4631">
        <ele>79</ele>
        <time>2022-04-07T10:41:21+02:00</time>
      </trkpt>
      <trkpt lat="48.84132" lon="1.46293">
        <ele>79</ele>
        <time>2022-04-07T10:41:40+02:00</time>
      </trkpt>
      <trkpt lat="48.84115" lon="1.46271">
        <ele>79</ele>
        <time>2022-04-07T10:41:57+02:00</time>
      </trkpt>
      <trkpt lat="48.84101" lon="1.46243">
        <ele>76</ele>
        <time>2022-04-07T10:42:15+02:00</time>
      </trkpt>
      <trkpt lat="48.84091" lon="1.46211">
        <ele>77</ele>
        <time>2022-04-07T10:42:32+02:00</time>
      </trkpt>
      <trkpt lat="48.84084" lon="1.46179">
        <ele>76</ele>
        <time>2022-04-07T10:42:48+02:00</time>
      </trkpt>
      <trkpt lat="48.84078" lon="1.46145">
        <ele>77</ele>
        <time>2022-04-07T10:43:05+02:00</time>
      </trkpt>
      <trkpt lat="48.84077" lon="1.46109">
        <ele>78</ele>
        <time>2022-04-07T10:43:23+02:00</time>
      </trkpt>
      <trkpt lat="48.84064" lon="1.46081">
        <ele>75</ele>
        <time>2022-04-07T10:44:25+02:00</time>
      </trkpt>
      <trkpt lat="48.84058" lon="1.46048">
        <ele>76</ele>
        <time>2022-04-07T10:44:40+02:00</time>
      </trkpt>
      <trkpt lat="48.84048" lon="1.46015">
        <ele>76</ele>
        <time>2022-04-07T10:45:00+02:00</time>
      </trkpt>
      <trkpt lat="48.84035" lon="1.45987">
        <ele>79</ele>
        <time>2022-04-07T10:45:16+02:00</time>
      </trkpt>
      <trkpt lat="48.84023" lon="1.45957">
        <ele>78</ele>
        <time>2022-04-07T10:45:32+02:00</time>
      </trkpt>
      <trkpt lat="48.84009" lon="1.45929">
        <ele>78</ele>
        <time>2022-04-07T10:45:49+02:00</time>
      </trkpt>
      <trkpt lat="48.83996" lon="1.45901">
        <ele>77</ele>
        <time>2022-04-07T10:46:05+02:00</time>
      </trkpt>
      <trkpt lat="48.83984" lon="1.45872">
        <ele>78</ele>
        <time>2022-04-07T10:46:21+02:00</time>
      </trkpt>
      <trkpt lat="48.83971" lon="1.45843">
        <ele>77</ele>
        <time>2022-04-07T10:46:38+02:00</time>
      </trkpt>
      <trkpt lat="48.83955" lon="1.45815">
        <ele>79</ele>
        <time>2022-04-07T10:46:55+02:00</time>
      </trkpt>
      <trkpt lat="48.83942" lon="1.45787">
        <ele>80</ele>
        <time>2022-04-07T10:47:12+02:00</time>
      </trkpt>
      <trkpt lat="48.83929" lon="1.45759">
        <ele>80</ele>
        <time>2022-04-07T10:47:29+02:00</time>
      </trkpt>
      <trkpt lat="48.83914" lon="1.4573">
        <ele>80</ele>
        <time>2022-04-07T10:47:47+02:00</time>
      </trkpt>
      <trkpt lat="48.839" lon="1.45701">
        <ele>79</ele>
        <time>2022-04-07T10:48:05+02:00</time>
      </trkpt>
      <trkpt lat="48.83887" lon="1.45673">
        <ele>80</ele>
        <time>2022-04-07T10:48:22+02:00</time>
      </trkpt>
      <trkpt lat="48.83874" lon="1.45644">
        <ele>80</ele>
        <time>2022-04-07T10:48:40+02:00</time>
      </trkpt>
      <trkpt lat="48.83862" lon="1.45615">
        <ele>80</ele>
        <time>2022-04-07T10:48:57+02:00</time>
      </trkpt>
      <trkpt lat="48.83849" lon="1.45586">
        <ele>80</ele>
        <time>2022-04-07T10:49:15+02:00</time>
      </trkpt>
      <trkpt lat="48.83835" lon="1.45558">
        <ele>79</ele>
        <time>2022-04-07T10:49:33+02:00</time>
      </trkpt>
      <trkpt lat="48.8382" lon="1.45532">
        <ele>79</ele>
        <time>2022-04-07T10:49:51+02:00</time>
      </trkpt>
      <trkpt lat="48.83805" lon="1.45506">
        <ele>79</ele>
        <time>2022-04-07T10:50:08+02:00</time>
      </trkpt>
      <trkpt lat="48.83789" lon="1.45482">
        <ele>79</ele>
        <time>2022-04-07T10:50:25+02:00</time>
      </trkpt>
      <trkpt lat="48.83772" lon="1.45457">
        <ele>78</ele>
        <time>2022-04-07T10:50:43+02:00</time>
      </trkpt>
      <trkpt lat="48.83753" lon="1.45436">
        <ele>81</ele>
        <time>2022-04-07T10:51:01+02:00</time>
      </trkpt>
      <trkpt lat="48.83733" lon="1.45419">
        <ele>80</ele>
        <time>2022-04-07T10:51:19+02:00</time>
      </trkpt>
      <trkpt lat="48.83712" lon="1.45405">
        <ele>80</ele>
        <time>2022-04-07T10:51:37+02:00</time>
      </trkpt>
      <trkpt lat="48.83689" lon="1.45395">
        <ele>81</ele>
        <time>2022-04-07T10:51:55+02:00</time>
      </trkpt>
      <trkpt lat="48.83667" lon="1.45387">
        <ele>81</ele>
        <time>2022-04-07T10:52:13+02:00</time>
      </trkpt>
      <trkpt lat="48.83645" lon="1.45379">
        <ele>82</ele>
        <time>2022-04-07T10:52:32+02:00</time>
      </trkpt>
      <trkpt lat="48.83623" lon="1.4537">
        <ele>85</ele>
        <time>2022-04-07T10:52:51+02:00</time>
      </trkpt>
      <trkpt lat="48.83601" lon="1.45359">
        <ele>84</ele>
        <time>2022-04-07T10:53:10+02:00</time>
      </trkpt>
      <trkpt lat="48.83579" lon="1.45347">
        <ele>84</ele>
        <time>2022-04-07T10:53:29+02:00</time>
      </trkpt>
      <trkpt lat="48.83557" lon="1.45336">
        <ele>84</ele>
        <time>2022-04-07T10:53:49+02:00</time>
      </trkpt>
      <trkpt lat="48.83535" lon="1.45324">
        <ele>86</ele>
        <time>2022-04-07T10:54:09+02:00</time>
      </trkpt>
      <trkpt lat="48.83513" lon="1.45312">
        <ele>86</ele>
        <time>2022-04-07T10:54:28+02:00</time>
      </trkpt>
      <trkpt lat="48.83492" lon="1.45301">
        <ele>89</ele>
        <time>2022-04-07T10:54:47+02:00</time>
      </trkpt>
      <trkpt lat="48.83469" lon="1.45289">
        <ele>90</ele>
        <time>2022-04-07T10:55:06+02:00</time>
      </trkpt>
      <trkpt lat="48.83446" lon="1.45281">
        <ele>91</ele>
        <time>2022-04-07T10:55:26+02:00</time>
      </trkpt>
      <trkpt lat="48.83423" lon="1.45273">
        <ele>90</ele>
        <time>2022-04-07T10:55:46+02:00</time>
      </trkpt>
      <trkpt lat="48.83406" lon="1.4525">
        <ele>87</ele>
        <time>2022-04-07T10:56:07+02:00</time>
      </trkpt>
      <trkpt lat="48.83395" lon="1.45218">
        <ele>88</ele>
        <time>2022-04-07T10:56:26+02:00</time>
      </trkpt>
      <trkpt lat="48.83386" lon="1.45185">
        <ele>88</ele>
        <time>2022-04-07T10:56:44+02:00</time>
      </trkpt>
      <trkpt lat="48.83379" lon="1.4515">
        <ele>88</ele>
        <time>2022-04-07T10:57:02+02:00</time>
      </trkpt>
      <trkpt lat="48.83371" lon="1.45117">
        <ele>87</ele>
        <time>2022-04-07T10:57:21+02:00</time>
      </trkpt>
      <trkpt lat="48.83363" lon="1.45085">
        <ele>87</ele>
        <time>2022-04-07T10:57:40+02:00</time>
      </trkpt>
      <trkpt lat="48.83355" lon="1.45053">
        <ele>89</ele>
        <time>2022-04-07T10:57:59+02:00</time>
      </trkpt>
      <trkpt lat="48.83346" lon="1.45021">
        <ele>89</ele>
        <time>2022-04-07T10:58:18+02:00</time>
      </trkpt>
      <trkpt lat="48.83339" lon="1.44986">
        <ele>91</ele>
        <time>2022-04-07T10:58:43+02:00</time>
      </trkpt>
      <trkpt lat="48.8333" lon="1.44954">
        <ele>92</ele>
        <time>2022-04-07T10:59:03+02:00</time>
      </trkpt>
      <trkpt lat="48.83323" lon="1.44921">
        <ele>94</ele>
        <time>2022-04-07T10:59:22+02:00</time>
      </trkpt>
      <trkpt lat="48.83316" lon="1.44887">
        <ele>94</ele>
        <time>2022-04-07T10:59:41+02:00</time>
      </trkpt>
      <trkpt lat="48.83308" lon="1.44854">
        <ele>96</ele>
        <time>2022-04-07T11:00:00+02:00</time>
      </trkpt>
      <trkpt lat="48.833" lon="1.44822">
        <ele>97</ele>
        <time>2022-04-07T11:00:19+02:00</time>
      </trkpt>
      <trkpt lat="48.83291" lon="1.4479">
        <ele>97</ele>
        <time>2022-04-07T11:00:38+02:00</time>
      </trkpt>
      <trkpt lat="48.83283" lon="1.44758">
        <ele>96</ele>
        <time>2022-04-07T11:00:56+02:00</time>
      </trkpt>
      <trkpt lat="48.83273" lon="1.44726">
        <ele>97</ele>
        <time>2022-04-07T11:01:14+02:00</time>
      </trkpt>
      <trkpt lat="48.8326" lon="1.44697">
        <ele>95</ele>
        <time>2022-04-07T11:01:33+02:00</time>
      </trkpt>
      <trkpt lat="48.83238" lon="1.44688">
        <ele>95</ele>
        <time>2022-04-07T11:02:14+02:00</time>
      </trkpt>
      <trkpt lat="48.83215" lon="1.4469">
        <ele>100</ele>
        <time>2022-04-07T11:10:56+02:00</time>
      </trkpt>
      <trkpt lat="48.83193" lon="1.44686">
        <ele>101</ele>
        <time>2022-04-07T11:11:24+02:00</time>
      </trkpt>
      <trkpt lat="48.8317" lon="1.44693">
        <ele>105</ele>
        <time>2022-04-07T11:11:46+02:00</time>
      </trkpt>
      <trkpt lat="48.83147" lon="1.44702">
        <ele>108</ele>
        <time>2022-04-07T11:12:10+02:00</time>
      </trkpt>
      <trkpt lat="48.83125" lon="1.44712">
        <ele>110</ele>
        <time>2022-04-07T11:12:32+02:00</time>
      </trkpt>
      <trkpt lat="48.83103" lon="1.4472">
        <ele>115</ele>
        <time>2022-04-07T11:12:58+02:00</time>
      </trkpt>
      <trkpt lat="48.83081" lon="1.44728">
        <ele>113</ele>
        <time>2022-04-07T11:13:17+02:00</time>
      </trkpt>
      <trkpt lat="48.83061" lon="1.44743">
        <ele>117</ele>
        <time>2022-04-07T11:13:36+02:00</time>
      </trkpt>
      <trkpt lat="48.83039" lon="1.44757">
        <ele>121</ele>
        <time>2022-04-07T11:13:54+02:00</time>
      </trkpt>
      <trkpt lat="48.83018" lon="1.44771">
        <ele>124</ele>
        <time>2022-04-07T11:14:15+02:00</time>
      </trkpt>
      <trkpt lat="48.82997" lon="1.44787">
        <ele>126</ele>
        <time>2022-04-07T11:14:36+02:00</time>
      </trkpt>
      <trkpt lat="48.82975" lon="1.44803">
        <ele>128</ele>
        <time>2022-04-07T11:14:55+02:00</time>
      </trkpt>
      <trkpt lat="48.82958" lon="1.44827">
        <ele>129</ele>
        <time>2022-04-07T11:15:13+02:00</time>
      </trkpt>
      <trkpt lat="48.82943" lon="1.44852">
        <ele>130</ele>
        <time>2022-04-07T11:15:30+02:00</time>
      </trkpt>
      <trkpt lat="48.82927" lon="1.44879">
        <ele>129</ele>
        <time>2022-04-07T11:15:49+02:00</time>
      </trkpt>
      <trkpt lat="48.82908" lon="1.44902">
        <ele>130</ele>
        <time>2022-04-07T11:16:07+02:00</time>
      </trkpt>
      <trkpt lat="48.8289" lon="1.44923">
        <ele>129</ele>
        <time>2022-04-07T11:16:26+02:00</time>
      </trkpt>
      <trkpt lat="48.82871" lon="1.44943">
        <ele>132</ele>
        <time>2022-04-07T11:16:44+02:00</time>
      </trkpt>
      <trkpt lat="48.82853" lon="1.44967">
        <ele>133</ele>
        <time>2022-04-07T11:17:02+02:00</time>
      </trkpt>
      <trkpt lat="48.82834" lon="1.44986">
        <ele>133</ele>
        <time>2022-04-07T11:17:21+02:00</time>
      </trkpt>
      <trkpt lat="48.82813" lon="1.44998">
        <ele>133</ele>
        <time>2022-04-07T11:17:40+02:00</time>
      </trkpt>
      <trkpt lat="48.8279" lon="1.45005">
        <ele>133</ele>
        <time>2022-04-07T11:18:00+02:00</time>
      </trkpt>
      <trkpt lat="48.82766" lon="1.45007">
        <ele>135</ele>
        <time>2022-04-07T11:18:18+02:00</time>
      </trkpt>
      <trkpt lat="48.82745" lon="1.45018">
        <ele>135</ele>
        <time>2022-04-07T11:18:35+02:00</time>
      </trkpt>
      <trkpt lat="48.82724" lon="1.45033">
        <ele>135</ele>
        <time>2022-04-07T11:18:53+02:00</time>
      </trkpt>
      <trkpt lat="48.82704" lon="1.45049">
        <ele>134</ele>
        <time>2022-04-07T11:19:11+02:00</time>
      </trkpt>
      <trkpt lat="48.82683" lon="1.45064">
        <ele>134</ele>
        <time>2022-04-07T11:19:29+02:00</time>
      </trkpt>
      <trkpt lat="48.82662" lon="1.45077">
        <ele>132</ele>
        <time>2022-04-07T11:19:49+02:00</time>
      </trkpt>
      <trkpt lat="48.82644" lon="1.451">
        <ele>132</ele>
        <time>2022-04-07T11:20:06+02:00</time>
      </trkpt>
      <trkpt lat="48.82625" lon="1.45122">
        <ele>133</ele>
        <time>2022-04-07T11:20:23+02:00</time>
      </trkpt>
      <trkpt lat="48.82608" lon="1.45144">
        <ele>132</ele>
        <time>2022-04-07T11:20:41+02:00</time>
      </trkpt>
      <trkpt lat="48.82592" lon="1.4517">
        <ele>132</ele>
        <time>2022-04-07T11:20:59+02:00</time>
      </trkpt>
      <trkpt lat="48.8258" lon="1.45201">
        <ele>134</ele>
        <time>2022-04-07T11:21:17+02:00</time>
      </trkpt>
      <trkpt lat="48.82568" lon="1.4523">
        <ele>133</ele>
        <time>2022-04-07T11:21:35+02:00</time>
      </trkpt>
      <trkpt lat="48.82553" lon="1.45258">
        <ele>133</ele>
        <time>2022-04-07T11:21:53+02:00</time>
      </trkpt>
      <trkpt lat="48.82544" lon="1.4529">
        <ele>132</ele>
        <time>2022-04-07T11:22:10+02:00</time>
      </trkpt>
      <trkpt lat="48.82529" lon="1.45317">
        <ele>131</ele>
        <time>2022-04-07T11:22:27+02:00</time>
      </trkpt>
      <trkpt lat="48.82509" lon="1.45334">
        <ele>131</ele>
        <time>2022-04-07T11:22:46+02:00</time>
      </trkpt>
      <trkpt lat="48.82488" lon="1.45347">
        <ele>132</ele>
        <time>2022-04-07T11:23:05+02:00</time>
      </trkpt>
      <trkpt lat="48.82466" lon="1.45359">
        <ele>131</ele>
        <time>2022-04-07T11:23:24+02:00</time>
      </trkpt>
      <trkpt lat="48.82446" lon="1.45375">
        <ele>134</ele>
        <time>2022-04-07T11:23:39+02:00</time>
      </trkpt>
      <trkpt lat="48.82429" lon="1.454">
        <ele>134</ele>
        <time>2022-04-07T11:23:57+02:00</time>
      </trkpt>
      <trkpt lat="48.82414" lon="1.45429">
        <ele>135</ele>
        <time>2022-04-07T11:24:18+02:00</time>
      </trkpt>
      <trkpt lat="48.82402" lon="1.45458">
        <ele>135</ele>
        <time>2022-04-07T11:24:36+02:00</time>
      </trkpt>
      <trkpt lat="48.82389" lon="1.45486">
        <ele>132</ele>
        <time>2022-04-07T11:24:55+02:00</time>
      </trkpt>
      <trkpt lat="48.82375" lon="1.45513">
        <ele>132</ele>
        <time>2022-04-07T11:25:13+02:00</time>
      </trkpt>
      <trkpt lat="48.82359" lon="1.45537">
        <ele>132</ele>
        <time>2022-04-07T11:25:30+02:00</time>
      </trkpt>
      <trkpt lat="48.82346" lon="1.45565">
        <ele>128</ele>
        <time>2022-04-07T11:25:48+02:00</time>
      </trkpt>
      <trkpt lat="48.82336" lon="1.45598">
        <ele>126</ele>
        <time>2022-04-07T11:26:05+02:00</time>
      </trkpt>
      <trkpt lat="48.82325" lon="1.45629">
        <ele>127</ele>
        <time>2022-04-07T11:26:23+02:00</time>
      </trkpt>
      <trkpt lat="48.82306" lon="1.45607">
        <ele>128</ele>
        <time>2022-04-07T11:27:51+02:00</time>
      </trkpt>
      <trkpt lat="48.82295" lon="1.45576">
        <ele>130</ele>
        <time>2022-04-07T11:28:07+02:00</time>
      </trkpt>
      <trkpt lat="48.82284" lon="1.45546">
        <ele>131</ele>
        <time>2022-04-07T11:28:24+02:00</time>
      </trkpt>
      <trkpt lat="48.82273" lon="1.45516">
        <ele>131</ele>
        <time>2022-04-07T11:28:43+02:00</time>
      </trkpt>
      <trkpt lat="48.82263" lon="1.45485">
        <ele>134</ele>
        <time>2022-04-07T11:29:00+02:00</time>
      </trkpt>
      <trkpt lat="48.82251" lon="1.45454">
        <ele>132</ele>
        <time>2022-04-07T11:29:18+02:00</time>
      </trkpt>
      <trkpt lat="48.8224" lon="1.45424">
        <ele>132</ele>
        <time>2022-04-07T11:29:36+02:00</time>
      </trkpt>
      <trkpt lat="48.82227" lon="1.45396">
        <ele>133</ele>
        <time>2022-04-07T11:31:20+02:00</time>
      </trkpt>
      <trkpt lat="48.8222" lon="1.45363">
        <ele>132</ele>
        <time>2022-04-07T11:32:23+02:00</time>
      </trkpt>
      <trkpt lat="48.82209" lon="1.45333">
        <ele>131</ele>
        <time>2022-04-07T11:32:42+02:00</time>
      </trkpt>
      <trkpt lat="48.82198" lon="1.45303">
        <ele>131</ele>
        <time>2022-04-07T11:33:01+02:00</time>
      </trkpt>
      <trkpt lat="48.82186" lon="1.45271">
        <ele>131</ele>
        <time>2022-04-07T11:33:19+02:00</time>
      </trkpt>
      <trkpt lat="48.82175" lon="1.4524">
        <ele>132</ele>
        <time>2022-04-07T11:33:37+02:00</time>
      </trkpt>
      <trkpt lat="48.82164" lon="1.45211">
        <ele>132</ele>
        <time>2022-04-07T11:33:55+02:00</time>
      </trkpt>
      <trkpt lat="48.82165" lon="1.45176">
        <ele>132</ele>
        <time>2022-04-07T11:34:16+02:00</time>
      </trkpt>
      <trkpt lat="48.8217" lon="1.45142">
        <ele>131</ele>
        <time>2022-04-07T11:34:37+02:00</time>
      </trkpt>
      <trkpt lat="48.82174" lon="1.45107">
        <ele>131</ele>
        <time>2022-04-07T11:34:55+02:00</time>
      </trkpt>
      <trkpt lat="48.82179" lon="1.45072">
        <ele>131</ele>
        <time>2022-04-07T11:35:24+02:00</time>
      </trkpt>
      <trkpt lat="48.82183" lon="1.45038">
        <ele>130</ele>
        <time>2022-04-07T11:38:14+02:00</time>
      </trkpt>
      <trkpt lat="48.82185" lon="1.45004">
        <ele>131</ele>
        <time>2022-04-07T11:38:36+02:00</time>
      </trkpt>
      <trkpt lat="48.82191" lon="1.44972">
        <ele>130</ele>
        <time>2022-04-07T11:38:54+02:00</time>
      </trkpt>
      <trkpt lat="48.82193" lon="1.44935">
        <ele>132</ele>
        <time>2022-04-07T11:39:13+02:00</time>
      </trkpt>
      <trkpt lat="48.82199" lon="1.44902">
        <ele>131</ele>
        <time>2022-04-07T11:39:32+02:00</time>
      </trkpt>
      <trkpt lat="48.82202" lon="1.44868">
        <ele>132</ele>
        <time>2022-04-07T11:39:50+02:00</time>
      </trkpt>
      <trkpt lat="48.82206" lon="1.44832">
        <ele>131</ele>
        <time>2022-04-07T11:40:09+02:00</time>
      </trkpt>
      <trkpt lat="48.82211" lon="1.44796">
        <ele>130</ele>
        <time>2022-04-07T11:40:27+02:00</time>
      </trkpt>
      <trkpt lat="48.82216" lon="1.44762">
        <ele>126</ele>
        <time>2022-04-07T11:40:45+02:00</time>
      </trkpt>
      <trkpt lat="48.82221" lon="1.44727">
        <ele>122</ele>
        <time>2022-04-07T11:41:05+02:00</time>
      </trkpt>
      <trkpt lat="48.82225" lon="1.44693">
        <ele>118</ele>
        <time>2022-04-07T11:41:29+02:00</time>
      </trkpt>
      <trkpt lat="48.82227" lon="1.44658">
        <ele>120</ele>
        <time>2022-04-07T11:41:47+02:00</time>
      </trkpt>
      <trkpt lat="48.8223" lon="1.44624">
        <ele>120</ele>
        <time>2022-04-07T11:42:06+02:00</time>
      </trkpt>
      <trkpt lat="48.82235" lon="1.4459">
        <ele>122</ele>
        <time>2022-04-07T11:42:26+02:00</time>
      </trkpt>
      <trkpt lat="48.82237" lon="1.44556">
        <ele>124</ele>
        <time>2022-04-07T11:42:46+02:00</time>
      </trkpt>
      <trkpt lat="48.82243" lon="1.44521">
        <ele>123</ele>
        <time>2022-04-07T11:43:07+02:00</time>
      </trkpt>
      <trkpt lat="48.82246" lon="1.44487">
        <ele>125</ele>
        <time>2022-04-07T11:43:26+02:00</time>
      </trkpt>
      <trkpt lat="48.8225" lon="1.44453">
        <ele>126</ele>
        <time>2022-04-07T11:43:46+02:00</time>
      </trkpt>
      <trkpt lat="48.82255" lon="1.4442">
        <ele>126</ele>
        <time>2022-04-07T11:44:07+02:00</time>
      </trkpt>
      <trkpt lat="48.82261" lon="1.44385">
        <ele>126</ele>
        <time>2022-04-07T11:44:30+02:00</time>
      </trkpt>
      <trkpt lat="48.82267" lon="1.44353">
        <ele>126</ele>
        <time>2022-04-07T11:44:51+02:00</time>
      </trkpt>
      <trkpt lat="48.82275" lon="1.4432">
        <ele>125</ele>
        <time>2022-04-07T11:45:11+02:00</time>
      </trkpt>
      <trkpt lat="48.82275" lon="1.44285">
        <ele>126</ele>
        <time>2022-04-07T11:45:31+02:00</time>
      </trkpt>
      <trkpt lat="48.82279" lon="1.44251">
        <ele>127</ele>
        <time>2022-04-07T11:45:51+02:00</time>
      </trkpt>
      <trkpt lat="48.8228" lon="1.44216">
        <ele>128</ele>
        <time>2022-04-07T11:46:13+02:00</time>
      </trkpt>
      <trkpt lat="48.82282" lon="1.44182">
        <ele>131</ele>
        <time>2022-04-07T11:46:34+02:00</time>
      </trkpt>
      <trkpt lat="48.82289" lon="1.4415">
        <ele>130</ele>
        <time>2022-04-07T11:46:55+02:00</time>
      </trkpt>
      <trkpt lat="48.82294" lon="1.44116">
        <ele>130</ele>
        <time>2022-04-07T11:47:12+02:00</time>
      </trkpt>
      <trkpt lat="48.82297" lon="1.44081">
        <ele>129</ele>
        <time>2022-04-07T11:47:31+02:00</time>
      </trkpt>
      <trkpt lat="48.82301" lon="1.44046">
        <ele>131</ele>
        <time>2022-04-07T11:47:50+02:00</time>
      </trkpt>
      <trkpt lat="48.82304" lon="1.44012">
        <ele>133</ele>
        <time>2022-04-07T11:48:09+02:00</time>
      </trkpt>
      <trkpt lat="48.82313" lon="1.43979">
        <ele>130</ele>
        <time>2022-04-07T11:48:29+02:00</time>
      </trkpt>
      <trkpt lat="48.82318" lon="1.43946">
        <ele>130</ele>
        <time>2022-04-07T11:48:50+02:00</time>
      </trkpt>
      <trkpt lat="48.82321" lon="1.43912">
        <ele>130</ele>
        <time>2022-04-07T11:49:15+02:00</time>
      </trkpt>
      <trkpt lat="48.82321" lon="1.43878">
        <ele>132</ele>
        <time>2022-04-07T11:49:39+02:00</time>
      </trkpt>
      <trkpt lat="48.82327" lon="1.43844">
        <ele>132</ele>
        <time>2022-04-07T11:49:59+02:00</time>
      </trkpt>
      <trkpt lat="48.82331" lon="1.43809">
        <ele>133</ele>
        <time>2022-04-07T11:50:20+02:00</time>
      </trkpt>
      <trkpt lat="48.82336" lon="1.43776">
        <ele>132</ele>
        <time>2022-04-07T11:50:43+02:00</time>
      </trkpt>
      <trkpt lat="48.8234" lon="1.43742">
        <ele>132</ele>
        <time>2022-04-07T11:51:04+02:00</time>
      </trkpt>
      <trkpt lat="48.82342" lon="1.43706">
        <ele>134</ele>
        <time>2022-04-07T11:51:26+02:00</time>
      </trkpt>
      <trkpt lat="48.82348" lon="1.43673">
        <ele>132</ele>
        <time>2022-04-07T11:51:47+02:00</time>
      </trkpt>
      <trkpt lat="48.82352" lon="1.43638">
        <ele>133</ele>
        <time>2022-04-07T11:52:06+02:00</time>
      </trkpt>
      <trkpt lat="48.82355" lon="1.43603">
        <ele>134</ele>
        <time>2022-04-07T11:52:30+02:00</time>
      </trkpt>
      <trkpt lat="48.8236" lon="1.43568">
        <ele>133</ele>
        <time>2022-04-07T11:52:52+02:00</time>
      </trkpt>
      <trkpt lat="48.82365" lon="1.43533">
        <ele>133</ele>
        <time>2022-04-07T11:53:14+02:00</time>
      </trkpt>
      <trkpt lat="48.82369" lon="1.43498">
        <ele>132</ele>
        <time>2022-04-07T11:53:34+02:00</time>
      </trkpt>
      <trkpt lat="48.82375" lon="1.43464">
        <ele>131</ele>
        <time>2022-04-07T11:53:51+02:00</time>
      </trkpt>
      <trkpt lat="48.8238" lon="1.43431">
        <ele>131</ele>
        <time>2022-04-07T11:54:09+02:00</time>
      </trkpt>
      <trkpt lat="48.82382" lon="1.43396">
        <ele>132</ele>
        <time>2022-04-07T11:54:26+02:00</time>
      </trkpt>
      <trkpt lat="48.82385" lon="1.43361">
        <ele>131</ele>
        <time>2022-04-07T11:54:44+02:00</time>
      </trkpt>
      <trkpt lat="48.8239" lon="1.43328">
        <ele>129</ele>
        <time>2022-04-07T11:55:02+02:00</time>
      </trkpt>
      <trkpt lat="48.82395" lon="1.43294">
        <ele>129</ele>
        <time>2022-04-07T11:55:20+02:00</time>
      </trkpt>
      <trkpt lat="48.824" lon="1.43261">
        <ele>130</ele>
        <time>2022-04-07T11:55:37+02:00</time>
      </trkpt>
      <trkpt lat="48.82404" lon="1.43227">
        <ele>128</ele>
        <time>2022-04-07T11:55:55+02:00</time>
      </trkpt>
      <trkpt lat="48.82408" lon="1.43192">
        <ele>127</ele>
        <time>2022-04-07T11:56:13+02:00</time>
      </trkpt>
      <trkpt lat="48.82413" lon="1.43159">
        <ele>128</ele>
        <time>2022-04-07T11:56:31+02:00</time>
      </trkpt>
      <trkpt lat="48.82416" lon="1.43125">
        <ele>127</ele>
        <time>2022-04-07T11:57:06+02:00</time>
      </trkpt>
      <trkpt lat="48.82419" lon="1.43091">
        <ele>127</ele>
        <time>2022-04-07T11:57:52+02:00</time>
      </trkpt>
      <trkpt lat="48.82423" lon="1.43056">
        <ele>125</ele>
        <time>2022-04-07T11:58:21+02:00</time>
      </trkpt>
      <trkpt lat="48.82427" lon="1.43022">
        <ele>124</ele>
        <time>2022-04-07T11:58:43+02:00</time>
      </trkpt>
      <trkpt lat="48.82431" lon="1.42988">
        <ele>125</ele>
        <time>2022-04-07T11:59:04+02:00</time>
      </trkpt>
      <trkpt lat="48.82438" lon="1.42954">
        <ele>127</ele>
        <time>2022-04-07T11:59:24+02:00</time>
      </trkpt>
      <trkpt lat="48.82442" lon="1.42919">
        <ele>129</ele>
        <time>2022-04-07T11:59:45+02:00</time>
      </trkpt>
      <trkpt lat="48.82448" lon="1.42884">
        <ele>128</ele>
        <time>2022-04-07T12:00:07+02:00</time>
      </trkpt>
      <trkpt lat="48.82451" lon="1.4285">
        <ele>129</ele>
        <time>2022-04-07T12:00:27+02:00</time>
      </trkpt>
      <trkpt lat="48.82454" lon="1.42816">
        <ele>131</ele>
        <time>2022-04-07T12:00:47+02:00</time>
      </trkpt>
      <trkpt lat="48.82463" lon="1.42785">
        <ele>129</ele>
        <time>2022-04-07T12:01:09+02:00</time>
      </trkpt>
      <trkpt lat="48.82472" lon="1.42752">
        <ele>132</ele>
        <time>2022-04-07T12:01:28+02:00</time>
      </trkpt>
      <trkpt lat="48.82483" lon="1.42723">
        <ele>130</ele>
        <time>2022-04-07T12:01:47+02:00</time>
      </trkpt>
      <trkpt lat="48.82494" lon="1.42691">
        <ele>131</ele>
        <time>2022-04-07T12:02:08+02:00</time>
      </trkpt>
      <trkpt lat="48.82506" lon="1.42661">
        <ele>132</ele>
        <time>2022-04-07T12:02:28+02:00</time>
      </trkpt>
      <trkpt lat="48.82516" lon="1.4263">
        <ele>131</ele>
        <time>2022-04-07T12:02:47+02:00</time>
      </trkpt>
      <trkpt lat="48.82526" lon="1.42599">
        <ele>132</ele>
        <time>2022-04-07T12:03:06+02:00</time>
      </trkpt>
      <trkpt lat="48.82537" lon="1.42568">
        <ele>131</ele>
        <time>2022-04-07T12:03:27+02:00</time>
      </trkpt>
      <trkpt lat="48.82548" lon="1.42537">
        <ele>131</ele>
        <time>2022-04-07T12:03:47+02:00</time>
      </trkpt>
      <trkpt lat="48.82558" lon="1.42506">
        <ele>132</ele>
        <time>2022-04-07T12:04:07+02:00</time>
      </trkpt>
      <trkpt lat="48.82567" lon="1.42474">
        <ele>133</ele>
        <time>2022-04-07T12:04:26+02:00</time>
      </trkpt>
      <trkpt lat="48.82556" lon="1.42444">
        <ele>133</ele>
        <time>2022-04-07T12:04:49+02:00</time>
      </trkpt>
      <trkpt lat="48.82537" lon="1.42422">
        <ele>133</ele>
        <time>2022-04-07T12:05:07+02:00</time>
      </trkpt>
      <trkpt lat="48.8252" lon="1.424">
        <ele>135</ele>
        <time>2022-04-07T12:05:27+02:00</time>
      </trkpt>
      <trkpt lat="48.82504" lon="1.42376">
        <ele>134</ele>
        <time>2022-04-07T12:05:46+02:00</time>
      </trkpt>
      <trkpt lat="48.82486" lon="1.42354">
        <ele>136</ele>
        <time>2022-04-07T12:06:06+02:00</time>
      </trkpt>
      <trkpt lat="48.82467" lon="1.42333">
        <ele>135</ele>
        <time>2022-04-07T12:06:23+02:00</time>
      </trkpt>
      <trkpt lat="48.8245" lon="1.42309">
        <ele>135</ele>
        <time>2022-04-07T12:06:44+02:00</time>
      </trkpt>
      <trkpt lat="48.82431" lon="1.42287">
        <ele>135</ele>
        <time>2022-04-07T12:07:03+02:00</time>
      </trkpt>
      <trkpt lat="48.82414" lon="1.42265">
        <ele>135</ele>
        <time>2022-04-07T12:07:24+02:00</time>
      </trkpt>
      <trkpt lat="48.82396" lon="1.42245">
        <ele>136</ele>
        <time>2022-04-07T12:08:01+02:00</time>
      </trkpt>
      <trkpt lat="48.82377" lon="1.42223">
        <ele>135</ele>
        <time>2022-04-07T12:08:21+02:00</time>
      </trkpt>
      <trkpt lat="48.8236" lon="1.42199">
        <ele>133</ele>
        <time>2022-04-07T12:08:40+02:00</time>
      </trkpt>
      <trkpt lat="48.82343" lon="1.42174">
        <ele>133</ele>
        <time>2022-04-07T12:09:00+02:00</time>
      </trkpt>
      <trkpt lat="48.82326" lon="1.4215">
        <ele>133</ele>
        <time>2022-04-07T12:09:20+02:00</time>
      </trkpt>
      <trkpt lat="48.82309" lon="1.42128">
        <ele>131</ele>
        <time>2022-04-07T12:09:40+02:00</time>
      </trkpt>
      <trkpt lat="48.82291" lon="1.42104">
        <ele>132</ele>
        <time>2022-04-07T12:10:00+02:00</time>
      </trkpt>
      <trkpt lat="48.82273" lon="1.42081">
        <ele>133</ele>
        <time>2022-04-07T12:10:22+02:00</time>
      </trkpt>
      <trkpt lat="48.82254" lon="1.42064">
        <ele>134</ele>
        <time>2022-04-07T12:10:43+02:00</time>
      </trkpt>
      <trkpt lat="48.82232" lon="1.42053">
        <ele>132</ele>
        <time>2022-04-07T12:11:04+02:00</time>
      </trkpt>
      <trkpt lat="48.8221" lon="1.4204">
        <ele>132</ele>
        <time>2022-04-07T12:11:22+02:00</time>
      </trkpt>
      <trkpt lat="48.82189" lon="1.42029">
        <ele>133</ele>
        <time>2022-04-07T12:11:41+02:00</time>
      </trkpt>
      <trkpt lat="48.82167" lon="1.42016">
        <ele>132</ele>
        <time>2022-04-07T12:12:02+02:00</time>
      </trkpt>
      <trkpt lat="48.82145" lon="1.42003">
        <ele>132</ele>
        <time>2022-04-07T12:12:21+02:00</time>
      </trkpt>
      <trkpt lat="48.82124" lon="1.41992">
        <ele>132</ele>
        <time>2022-04-07T12:12:44+02:00</time>
      </trkpt>
      <trkpt lat="48.82102" lon="1.4198">
        <ele>130</ele>
        <time>2022-04-07T12:13:05+02:00</time>
      </trkpt>
      <trkpt lat="48.82081" lon="1.41967">
        <ele>131</ele>
        <time>2022-04-07T12:13:26+02:00</time>
      </trkpt>
      <trkpt lat="48.82059" lon="1.41957">
        <ele>134</ele>
        <time>2022-04-07T12:13:43+02:00</time>
      </trkpt>
      <trkpt lat="48.82037" lon="1.41945">
        <ele>133</ele>
        <time>2022-04-07T12:14:00+02:00</time>
      </trkpt>
      <trkpt lat="48.82018" lon="1.41927">
        <ele>134</ele>
        <time>2022-04-07T12:14:20+02:00</time>
      </trkpt>
      <trkpt lat="48.82013" lon="1.41894">
        <ele>133</ele>
        <time>2022-04-07T12:14:40+02:00</time>
      </trkpt>
      <trkpt lat="48.82007" lon="1.4186">
        <ele>133</ele>
        <time>2022-04-07T12:14:58+02:00</time>
      </trkpt>
      <trkpt lat="48.82" lon="1.41828">
        <ele>133</ele>
        <time>2022-04-07T12:15:15+02:00</time>
      </trkpt>
      <trkpt lat="48.81996" lon="1.41794">
        <ele>133</ele>
        <time>2022-04-07T12:15:34+02:00</time>
      </trkpt>
      <trkpt lat="48.8199" lon="1.41759">
        <ele>133</ele>
        <time>2022-04-07T12:15:53+02:00</time>
      </trkpt>
      <trkpt lat="48.81984" lon="1.41726">
        <ele>132</ele>
        <time>2022-04-07T12:16:12+02:00</time>
      </trkpt>
      <trkpt lat="48.81978" lon="1.41692">
        <ele>130</ele>
        <time>2022-04-07T12:16:31+02:00</time>
      </trkpt>
      <trkpt lat="48.81971" lon="1.4166">
        <ele>131</ele>
        <time>2022-04-07T12:16:50+02:00</time>
      </trkpt>
      <trkpt lat="48.81966" lon="1.41626">
        <ele>131</ele>
        <time>2022-04-07T12:17:09+02:00</time>
      </trkpt>
      <trkpt lat="48.8196" lon="1.41593">
        <ele>132</ele>
        <time>2022-04-07T12:17:26+02:00</time>
      </trkpt>
      <trkpt lat="48.81953" lon="1.41559">
        <ele>130</ele>
        <time>2022-04-07T12:17:46+02:00</time>
      </trkpt>
      <trkpt lat="48.81947" lon="1.41526">
        <ele>132</ele>
        <time>2022-04-07T12:18:04+02:00</time>
      </trkpt>
      <trkpt lat="48.81943" lon="1.41492">
        <ele>131</ele>
        <time>2022-04-07T12:18:24+02:00</time>
      </trkpt>
      <trkpt lat="48.81937" lon="1.41459">
        <ele>130</ele>
        <time>2022-04-07T12:18:43+02:00</time>
      </trkpt>
      <trkpt lat="48.81932" lon="1.41424">
        <ele>129</ele>
        <time>2022-04-07T12:19:03+02:00</time>
      </trkpt>
      <trkpt lat="48.81925" lon="1.4139">
        <ele>132</ele>
        <time>2022-04-07T12:19:23+02:00</time>
      </trkpt>
      <trkpt lat="48.8192" lon="1.41357">
        <ele>131</ele>
        <time>2022-04-07T12:19:43+02:00</time>
      </trkpt>
      <trkpt lat="48.8191" lon="1.41326">
        <ele>132</ele>
        <time>2022-04-07T12:20:09+02:00</time>
      </trkpt>
      <trkpt lat="48.8189" lon="1.41311">
        <ele>131</ele>
        <time>2022-04-07T12:20:42+02:00</time>
      </trkpt>
      <trkpt lat="48.8187" lon="1.4133">
        <ele>131</ele>
        <time>2022-04-07T12:21:30+02:00</time>
      </trkpt>
      <trkpt lat="48.8185" lon="1.41346">
        <ele>132</ele>
        <time>2022-04-07T12:21:55+02:00</time>
      </trkpt>
      <trkpt lat="48.81833" lon="1.41368">
        <ele>133</ele>
        <time>2022-04-07T12:22:31+02:00</time>
      </trkpt>
      <trkpt lat="48.81812" lon="1.41384">
        <ele>131</ele>
        <time>2022-04-07T12:22:49+02:00</time>
      </trkpt>
      <trkpt lat="48.81792" lon="1.41399">
        <ele>132</ele>
        <time>2022-04-07T12:23:07+02:00</time>
      </trkpt>
      <trkpt lat="48.81772" lon="1.41416">
        <ele>131</ele>
        <time>2022-04-07T12:23:26+02:00</time>
      </trkpt>
      <trkpt lat="48.81753" lon="1.41434">
        <ele>131</ele>
        <time>2022-04-07T12:23:42+02:00</time>
      </trkpt>
      <trkpt lat="48.81732" lon="1.41452">
        <ele>134</ele>
        <time>2022-04-07T12:24:03+02:00</time>
      </trkpt>
      <trkpt lat="48.81712" lon="1.4147">
        <ele>135</ele>
        <time>2022-04-07T12:24:22+02:00</time>
      </trkpt>
      <trkpt lat="48.81692" lon="1.41487">
        <ele>133</ele>
        <time>2022-04-07T12:24:41+02:00</time>
      </trkpt>
      <trkpt lat="48.81671" lon="1.41504">
        <ele>135</ele>
        <time>2022-04-07T12:25:02+02:00</time>
      </trkpt>
      <trkpt lat="48.81652" lon="1.41522">
        <ele>134</ele>
        <time>2022-04-07T12:25:22+02:00</time>
      </trkpt>
      <trkpt lat="48.81632" lon="1.41541">
        <ele>131</ele>
        <time>2022-04-07T12:25:49+02:00</time>
      </trkpt>
      <trkpt lat="48.81613" lon="1.41562">
        <ele>132</ele>
        <time>2022-04-07T12:26:11+02:00</time>
      </trkpt>
      <trkpt lat="48.81592" lon="1.41574">
        <ele>133</ele>
        <time>2022-04-07T12:26:30+02:00</time>
      </trkpt>
      <trkpt lat="48.81572" lon="1.41593">
        <ele>134</ele>
        <time>2022-04-07T12:26:47+02:00</time>
      </trkpt>
      <trkpt lat="48.81552" lon="1.4161">
        <ele>134</ele>
        <time>2022-04-07T12:27:06+02:00</time>
      </trkpt>
      <trkpt lat="48.81531" lon="1.41627">
        <ele>134</ele>
        <time>2022-04-07T12:27:26+02:00</time>
      </trkpt>
      <trkpt lat="48.81512" lon="1.41645">
        <ele>134</ele>
        <time>2022-04-07T12:27:46+02:00</time>
      </trkpt>
      <trkpt lat="48.81493" lon="1.41663">
        <ele>134</ele>
        <time>2022-04-07T12:28:05+02:00</time>
      </trkpt>
      <trkpt lat="48.81472" lon="1.41682">
        <ele>134</ele>
        <time>2022-04-07T12:28:25+02:00</time>
      </trkpt>
      <trkpt lat="48.81453" lon="1.417">
        <ele>133</ele>
        <time>2022-04-07T12:28:43+02:00</time>
      </trkpt>
      <trkpt lat="48.81433" lon="1.41717">
        <ele>135</ele>
        <time>2022-04-07T12:29:03+02:00</time>
      </trkpt>
      <trkpt lat="48.81413" lon="1.41734">
        <ele>135</ele>
        <time>2022-04-07T12:29:24+02:00</time>
      </trkpt>
      <trkpt lat="48.81394" lon="1.41755">
        <ele>134</ele>
        <time>2022-04-07T12:29:48+02:00</time>
      </trkpt>
      <trkpt lat="48.81373" lon="1.41744">
        <ele>130</ele>
        <time>2022-04-07T12:30:18+02:00</time>
      </trkpt>
      <trkpt lat="48.81357" lon="1.4172">
        <ele>130</ele>
        <time>2022-04-07T12:30:41+02:00</time>
      </trkpt>
      <trkpt lat="48.81338" lon="1.41698">
        <ele>131</ele>
        <time>2022-04-07T12:31:01+02:00</time>
      </trkpt>
      <trkpt lat="48.81321" lon="1.41675">
        <ele>129</ele>
        <time>2022-04-07T12:31:20+02:00</time>
      </trkpt>
      <trkpt lat="48.81304" lon="1.41651">
        <ele>131</ele>
        <time>2022-04-07T12:31:39+02:00</time>
      </trkpt>
      <trkpt lat="48.81287" lon="1.41628">
        <ele>132</ele>
        <time>2022-04-07T12:31:59+02:00</time>
      </trkpt>
      <trkpt lat="48.81272" lon="1.41604">
        <ele>133</ele>
        <time>2022-04-07T12:32:24+02:00</time>
      </trkpt>
      <trkpt lat="48.81255" lon="1.41581">
        <ele>131</ele>
        <time>2022-04-07T12:32:48+02:00</time>
      </trkpt>
      <trkpt lat="48.81237" lon="1.41559">
        <ele>130</ele>
        <time>2022-04-07T12:33:09+02:00</time>
      </trkpt>
      <trkpt lat="48.81219" lon="1.41536">
        <ele>130</ele>
        <time>2022-04-07T12:33:28+02:00</time>
      </trkpt>
      <trkpt lat="48.81201" lon="1.41511">
        <ele>131</ele>
        <time>2022-04-07T12:33:47+02:00</time>
      </trkpt>
      <trkpt lat="48.81184" lon="1.41487">
        <ele>130</ele>
        <time>2022-04-07T12:34:05+02:00</time>
      </trkpt>
      <trkpt lat="48.81166" lon="1.41463">
        <ele>129</ele>
        <time>2022-04-07T12:34:23+02:00</time>
      </trkpt>
      <trkpt lat="48.8115" lon="1.4144">
        <ele>129</ele>
        <time>2022-04-07T12:34:42+02:00</time>
      </trkpt>
      <trkpt lat="48.81132" lon="1.41417">
        <ele>129</ele>
        <time>2022-04-07T12:35:00+02:00</time>
      </trkpt>
      <trkpt lat="48.81115" lon="1.41393">
        <ele>130</ele>
        <time>2022-04-07T12:35:19+02:00</time>
      </trkpt>
      <trkpt lat="48.81097" lon="1.4137">
        <ele>130</ele>
        <time>2022-04-07T12:35:37+02:00</time>
      </trkpt>
      <trkpt lat="48.81079" lon="1.41348">
        <ele>132</ele>
        <time>2022-04-07T12:35:54+02:00</time>
      </trkpt>
      <trkpt lat="48.81063" lon="1.41325">
        <ele>129</ele>
        <time>2022-04-07T12:36:11+02:00</time>
      </trkpt>
      <trkpt lat="48.81046" lon="1.41301">
        <ele>128</ele>
        <time>2022-04-07T12:36:29+02:00</time>
      </trkpt>
      <trkpt lat="48.81028" lon="1.41279">
        <ele>130</ele>
        <time>2022-04-07T12:36:48+02:00</time>
      </trkpt>
      <trkpt lat="48.81012" lon="1.41255">
        <ele>131</ele>
        <time>2022-04-07T12:37:10+02:00</time>
      </trkpt>
      <trkpt lat="48.80994" lon="1.41231">
        <ele>130</ele>
        <time>2022-04-07T12:37:33+02:00</time>
      </trkpt>
      <trkpt lat="48.80974" lon="1.41211">
        <ele>131</ele>
        <time>2022-04-07T12:37:53+02:00</time>
      </trkpt>
      <trkpt lat="48.8096" lon="1.41185">
        <ele>131</ele>
        <time>2022-04-07T12:38:12+02:00</time>
      </trkpt>
      <trkpt lat="48.80942" lon="1.41161">
        <ele>130</ele>
        <time>2022-04-07T12:38:30+02:00</time>
      </trkpt>
      <trkpt lat="48.80925" lon="1.41139">
        <ele>131</ele>
        <time>2022-04-07T12:38:49+02:00</time>
      </trkpt>
      <trkpt lat="48.80908" lon="1.41113">
        <ele>132</ele>
        <time>2022-04-07T12:39:06+02:00</time>
      </trkpt>
      <trkpt lat="48.8089" lon="1.4109">
        <ele>132</ele>
        <time>2022-04-07T12:39:25+02:00</time>
      </trkpt>
      <trkpt lat="48.80873" lon="1.41069">
        <ele>133</ele>
        <time>2022-04-07T12:39:44+02:00</time>
      </trkpt>
      <trkpt lat="48.80855" lon="1.41047">
        <ele>134</ele>
        <time>2022-04-07T12:40:03+02:00</time>
      </trkpt>
      <trkpt lat="48.80837" lon="1.41025">
        <ele>136</ele>
        <time>2022-04-07T12:40:21+02:00</time>
      </trkpt>
      <trkpt lat="48.8082" lon="1.41001">
        <ele>136</ele>
        <time>2022-04-07T12:40:38+02:00</time>
      </trkpt>
      <trkpt lat="48.80803" lon="1.40979">
        <ele>137</ele>
        <time>2022-04-07T12:40:57+02:00</time>
      </trkpt>
      <trkpt lat="48.80784" lon="1.40957">
        <ele>136</ele>
        <time>2022-04-07T12:41:16+02:00</time>
      </trkpt>
      <trkpt lat="48.80766" lon="1.40935">
        <ele>134</ele>
        <time>2022-04-07T12:41:34+02:00</time>
      </trkpt>
      <trkpt lat="48.80751" lon="1.40905">
        <ele>135</ele>
        <time>2022-04-07T12:41:51+02:00</time>
      </trkpt>
      <trkpt lat="48.80733" lon="1.40883">
        <ele>137</ele>
        <time>2022-04-07T12:42:06+02:00</time>
      </trkpt>
      <trkpt lat="48.80715" lon="1.40859">
        <ele>136</ele>
        <time>2022-04-07T12:42:24+02:00</time>
      </trkpt>
      <trkpt lat="48.80698" lon="1.40836">
        <ele>135</ele>
        <time>2022-04-07T12:42:43+02:00</time>
      </trkpt>
      <trkpt lat="48.8068" lon="1.40815">
        <ele>137</ele>
        <time>2022-04-07T12:43:11+02:00</time>
      </trkpt>
      <trkpt lat="48.80662" lon="1.40791">
        <ele>138</ele>
        <time>2022-04-07T12:43:57+02:00</time>
      </trkpt>
      <trkpt lat="48.80645" lon="1.40769">
        <ele>140</ele>
        <time>2022-04-07T12:44:35+02:00</time>
      </trkpt>
      <trkpt lat="48.80623" lon="1.40758">
        <ele>142</ele>
        <time>2022-04-07T12:44:58+02:00</time>
      </trkpt>
      <trkpt lat="48.80626" lon="1.40793">
        <ele>136</ele>
        <time>2022-04-07T12:45:34+02:00</time>
      </trkpt>
      <trkpt lat="48.80638" lon="1.40822">
        <ele>137</ele>
        <time>2022-04-07T12:45:56+02:00</time>
      </trkpt>
      <trkpt lat="48.80648" lon="1.40853">
        <ele>136</ele>
        <time>2022-04-07T12:46:17+02:00</time>
      </trkpt>
      <trkpt lat="48.80902" lon="1.4061">
        <ele>112</ele>
        <time>2022-04-07T13:33:55+02:00</time>
      </trkpt>
      <trkpt lat="48.80902" lon="1.40594">
        <ele>133</ele>
        <time>2022-04-07T13:34:07+02:00</time>
      </trkpt>
      <trkpt lat="48.80885" lon="1.40569">
        <ele>136</ele>
        <time>2022-04-07T13:39:47+02:00</time>
      </trkpt>
      <trkpt lat="48.80872" lon="1.4054">
        <ele>134</ele>
        <time>2022-04-07T13:40:14+02:00</time>
      </trkpt>
      <trkpt lat="48.80865" lon="1.40507">
        <ele>132</ele>
        <time>2022-04-07T13:40:42+02:00</time>
      </trkpt>
      <trkpt lat="48.80866" lon="1.40473">
        <ele>130</ele>
        <time>2022-04-07T13:41:05+02:00</time>
      </trkpt>
      <trkpt lat="48.80873" lon="1.4044">
        <ele>131</ele>
        <time>2022-04-07T13:41:38+02:00</time>
      </trkpt>
      <trkpt lat="48.80894" lon="1.40426">
        <ele>134</ele>
        <time>2022-04-07T13:42:10+02:00</time>
      </trkpt>
      <trkpt lat="48.80914" lon="1.40408">
        <ele>138</ele>
        <time>2022-04-07T13:42:46+02:00</time>
      </trkpt>
      <trkpt lat="48.80935" lon="1.4039">
        <ele>136</ele>
        <time>2022-04-07T13:43:09+02:00</time>
      </trkpt>
      <trkpt lat="48.80956" lon="1.40377">
        <ele>136</ele>
        <time>2022-04-07T13:43:28+02:00</time>
      </trkpt>
      <trkpt lat="48.80975" lon="1.4036">
        <ele>133</ele>
        <time>2022-04-07T13:43:50+02:00</time>
      </trkpt>
      <trkpt lat="48.80996" lon="1.40345">
        <ele>132</ele>
        <time>2022-04-07T13:44:08+02:00</time>
      </trkpt>
      <trkpt lat="48.81018" lon="1.40343">
        <ele>129</ele>
        <time>2022-04-07T13:44:31+02:00</time>
      </trkpt>
      <trkpt lat="48.8104" lon="1.40352">
        <ele>130</ele>
        <time>2022-04-07T13:44:53+02:00</time>
      </trkpt>
      <trkpt lat="48.81063" lon="1.40364">
        <ele>128</ele>
        <time>2022-04-07T13:45:13+02:00</time>
      </trkpt>
      <trkpt lat="48.81086" lon="1.40371">
        <ele>133</ele>
        <time>2022-04-07T13:45:33+02:00</time>
      </trkpt>
      <trkpt lat="48.81108" lon="1.40384">
        <ele>131</ele>
        <time>2022-04-07T13:45:54+02:00</time>
      </trkpt>
      <trkpt lat="48.8113" lon="1.40391">
        <ele>131</ele>
        <time>2022-04-07T13:46:20+02:00</time>
      </trkpt>
      <trkpt lat="48.81153" lon="1.40401">
        <ele>131</ele>
        <time>2022-04-07T13:46:43+02:00</time>
      </trkpt>
      <trkpt lat="48.81175" lon="1.4041">
        <ele>130</ele>
        <time>2022-04-07T13:47:04+02:00</time>
      </trkpt>
      <trkpt lat="48.81197" lon="1.4042">
        <ele>131</ele>
        <time>2022-04-07T13:47:28+02:00</time>
      </trkpt>
      <trkpt lat="48.8122" lon="1.40429">
        <ele>131</ele>
        <time>2022-04-07T13:47:48+02:00</time>
      </trkpt>
      <trkpt lat="48.81242" lon="1.4044">
        <ele>131</ele>
        <time>2022-04-07T13:48:08+02:00</time>
      </trkpt>
      <trkpt lat="48.81263" lon="1.4045">
        <ele>131</ele>
        <time>2022-04-07T13:48:31+02:00</time>
      </trkpt>
      <trkpt lat="48.81286" lon="1.40458">
        <ele>130</ele>
        <time>2022-04-07T13:48:51+02:00</time>
      </trkpt>
      <trkpt lat="48.81308" lon="1.40468">
        <ele>132</ele>
        <time>2022-04-07T13:49:11+02:00</time>
      </trkpt>
      <trkpt lat="48.81319" lon="1.40437">
        <ele>132</ele>
        <time>2022-04-07T13:49:46+02:00</time>
      </trkpt>
      <trkpt lat="48.81314" lon="1.40403">
        <ele>133</ele>
        <time>2022-04-07T13:50:05+02:00</time>
      </trkpt>
      <trkpt lat="48.81309" lon="1.40369">
        <ele>133</ele>
        <time>2022-04-07T13:50:24+02:00</time>
      </trkpt>
      <trkpt lat="48.81303" lon="1.40336">
        <ele>133</ele>
        <time>2022-04-07T13:50:43+02:00</time>
      </trkpt>
      <trkpt lat="48.813" lon="1.40301">
        <ele>132</ele>
        <time>2022-04-07T13:51:03+02:00</time>
      </trkpt>
      <trkpt lat="48.81316" lon="1.40274">
        <ele>132</ele>
        <time>2022-04-07T13:51:32+02:00</time>
      </trkpt>
      <trkpt lat="48.81337" lon="1.40264">
        <ele>135</ele>
        <time>2022-04-07T13:51:52+02:00</time>
      </trkpt>
      <trkpt lat="48.81359" lon="1.40256">
        <ele>136</ele>
        <time>2022-04-07T13:52:14+02:00</time>
      </trkpt>
      <trkpt lat="48.81382" lon="1.40246">
        <ele>136</ele>
        <time>2022-04-07T13:52:34+02:00</time>
      </trkpt>
      <trkpt lat="48.81406" lon="1.40238">
        <ele>137</ele>
        <time>2022-04-07T13:52:56+02:00</time>
      </trkpt>
      <trkpt lat="48.81428" lon="1.40229">
        <ele>136</ele>
        <time>2022-04-07T13:53:18+02:00</time>
      </trkpt>
      <trkpt lat="48.8145" lon="1.40218">
        <ele>135</ele>
        <time>2022-04-07T13:53:39+02:00</time>
      </trkpt>
      <trkpt lat="48.81472" lon="1.4021">
        <ele>136</ele>
        <time>2022-04-07T13:53:58+02:00</time>
      </trkpt>
      <trkpt lat="48.81494" lon="1.402">
        <ele>137</ele>
        <time>2022-04-07T13:54:17+02:00</time>
      </trkpt>
      <trkpt lat="48.81516" lon="1.40191">
        <ele>135</ele>
        <time>2022-04-07T13:54:37+02:00</time>
      </trkpt>
      <trkpt lat="48.81537" lon="1.40177">
        <ele>139</ele>
        <time>2022-04-07T13:55:32+02:00</time>
      </trkpt>
      <trkpt lat="48.81559" lon="1.40164">
        <ele>142</ele>
        <time>2022-04-07T13:55:54+02:00</time>
      </trkpt>
      <trkpt lat="48.81581" lon="1.40161">
        <ele>138</ele>
        <time>2022-04-07T13:56:09+02:00</time>
      </trkpt>
      <trkpt lat="48.81604" lon="1.40152">
        <ele>137</ele>
        <time>2022-04-07T13:56:27+02:00</time>
      </trkpt>
      <trkpt lat="48.81626" lon="1.40146">
        <ele>136</ele>
        <time>2022-04-07T13:56:45+02:00</time>
      </trkpt>
      <trkpt lat="48.81648" lon="1.40136">
        <ele>137</ele>
        <time>2022-04-07T13:57:03+02:00</time>
      </trkpt>
      <trkpt lat="48.81671" lon="1.40127">
        <ele>135</ele>
        <time>2022-04-07T13:57:24+02:00</time>
      </trkpt>
      <trkpt lat="48.81693" lon="1.4012">
        <ele>136</ele>
        <time>2022-04-07T13:57:41+02:00</time>
      </trkpt>
      <trkpt lat="48.81697" lon="1.40086">
        <ele>137</ele>
        <time>2022-04-07T13:58:50+02:00</time>
      </trkpt>
      <trkpt lat="48.81717" lon="1.40068">
        <ele>135</ele>
        <time>2022-04-07T13:59:46+02:00</time>
      </trkpt>
      <trkpt lat="48.8174" lon="1.40062">
        <ele>136</ele>
        <time>2022-04-07T14:00:07+02:00</time>
      </trkpt>
      <trkpt lat="48.81762" lon="1.40054">
        <ele>134</ele>
        <time>2022-04-07T14:00:27+02:00</time>
      </trkpt>
      <trkpt lat="48.81784" lon="1.40042">
        <ele>135</ele>
        <time>2022-04-07T14:00:50+02:00</time>
      </trkpt>
      <trkpt lat="48.81807" lon="1.40035">
        <ele>136</ele>
        <time>2022-04-07T14:01:10+02:00</time>
      </trkpt>
      <trkpt lat="48.81829" lon="1.40027">
        <ele>139</ele>
        <time>2022-04-07T14:01:29+02:00</time>
      </trkpt>
      <trkpt lat="48.81852" lon="1.40021">
        <ele>136</ele>
        <time>2022-04-07T14:01:50+02:00</time>
      </trkpt>
      <trkpt lat="48.81873" lon="1.40011">
        <ele>138</ele>
        <time>2022-04-07T14:02:12+02:00</time>
      </trkpt>
      <trkpt lat="48.81895" lon="1.4">
        <ele>135</ele>
        <time>2022-04-07T14:02:34+02:00</time>
      </trkpt>
      <trkpt lat="48.81919" lon="1.39993">
        <ele>135</ele>
        <time>2022-04-07T14:02:49+02:00</time>
      </trkpt>
      <trkpt lat="48.81941" lon="1.39984">
        <ele>135</ele>
        <time>2022-04-07T14:03:08+02:00</time>
      </trkpt>
      <trkpt lat="48.81964" lon="1.39975">
        <ele>139</ele>
        <time>2022-04-07T14:03:28+02:00</time>
      </trkpt>
      <trkpt lat="48.81987" lon="1.39966">
        <ele>136</ele>
        <time>2022-04-07T14:03:49+02:00</time>
      </trkpt>
      <trkpt lat="48.82009" lon="1.39957">
        <ele>135</ele>
        <time>2022-04-07T14:04:08+02:00</time>
      </trkpt>
      <trkpt lat="48.82031" lon="1.39947">
        <ele>135</ele>
        <time>2022-04-07T14:04:27+02:00</time>
      </trkpt>
      <trkpt lat="48.82054" lon="1.39937">
        <ele>134</ele>
        <time>2022-04-07T14:04:46+02:00</time>
      </trkpt>
      <trkpt lat="48.82077" lon="1.3993">
        <ele>132</ele>
        <time>2022-04-07T14:05:04+02:00</time>
      </trkpt>
      <trkpt lat="48.82099" lon="1.39923">
        <ele>132</ele>
        <time>2022-04-07T14:05:22+02:00</time>
      </trkpt>
      <trkpt lat="48.82121" lon="1.39912">
        <ele>131</ele>
        <time>2022-04-07T14:05:41+02:00</time>
      </trkpt>
      <trkpt lat="48.82133" lon="1.39882">
        <ele>129</ele>
        <time>2022-04-07T14:06:14+02:00</time>
      </trkpt>
      <trkpt lat="48.82136" lon="1.39847">
        <ele>129</ele>
        <time>2022-04-07T14:06:36+02:00</time>
      </trkpt>
      <trkpt lat="48.82139" lon="1.39813">
        <ele>129</ele>
        <time>2022-04-07T14:06:56+02:00</time>
      </trkpt>
      <trkpt lat="48.82145" lon="1.3978">
        <ele>128</ele>
        <time>2022-04-07T14:07:14+02:00</time>
      </trkpt>
      <trkpt lat="48.82155" lon="1.39747">
        <ele>127</ele>
        <time>2022-04-07T14:07:35+02:00</time>
      </trkpt>
      <trkpt lat="48.82169" lon="1.3972">
        <ele>127</ele>
        <time>2022-04-07T14:07:55+02:00</time>
      </trkpt>
      <trkpt lat="48.82183" lon="1.39693">
        <ele>123</ele>
        <time>2022-04-07T14:08:15+02:00</time>
      </trkpt>
      <trkpt lat="48.82204" lon="1.39679">
        <ele>121</ele>
        <time>2022-04-07T14:08:34+02:00</time>
      </trkpt>
      <trkpt lat="48.82226" lon="1.39669">
        <ele>121</ele>
        <time>2022-04-07T14:08:54+02:00</time>
      </trkpt>
      <trkpt lat="48.82248" lon="1.39661">
        <ele>121</ele>
        <time>2022-04-07T14:09:15+02:00</time>
      </trkpt>
      <trkpt lat="48.82272" lon="1.39658">
        <ele>125</ele>
        <time>2022-04-07T14:09:37+02:00</time>
      </trkpt>
      <trkpt lat="48.82289" lon="1.39681">
        <ele>124</ele>
        <time>2022-04-07T14:09:58+02:00</time>
      </trkpt>
      <trkpt lat="48.82309" lon="1.39698">
        <ele>123</ele>
        <time>2022-04-07T14:10:23+02:00</time>
      </trkpt>
      <trkpt lat="48.82322" lon="1.39728">
        <ele>122</ele>
        <time>2022-04-07T14:10:44+02:00</time>
      </trkpt>
      <trkpt lat="48.82334" lon="1.39758">
        <ele>121</ele>
        <time>2022-04-07T14:11:05+02:00</time>
      </trkpt>
      <trkpt lat="48.82344" lon="1.39789">
        <ele>119</ele>
        <time>2022-04-07T14:11:25+02:00</time>
      </trkpt>
      <trkpt lat="48.82352" lon="1.39822">
        <ele>117</ele>
        <time>2022-04-07T14:11:43+02:00</time>
      </trkpt>
      <trkpt lat="48.82353" lon="1.39856">
        <ele>118</ele>
        <time>2022-04-07T14:12:03+02:00</time>
      </trkpt>
      <trkpt lat="48.82357" lon="1.3989">
        <ele>119</ele>
        <time>2022-04-07T14:12:25+02:00</time>
      </trkpt>
      <trkpt lat="48.82366" lon="1.39923">
        <ele>122</ele>
        <time>2022-04-07T14:12:46+02:00</time>
      </trkpt>
      <trkpt lat="48.8238" lon="1.39952">
        <ele>125</ele>
        <time>2022-04-07T14:13:05+02:00</time>
      </trkpt>
      <trkpt lat="48.82398" lon="1.39974">
        <ele>129</ele>
        <time>2022-04-07T14:13:29+02:00</time>
      </trkpt>
      <trkpt lat="48.82417" lon="1.39991">
        <ele>131</ele>
        <time>2022-04-07T14:13:51+02:00</time>
      </trkpt>
      <trkpt lat="48.82438" lon="1.40007">
        <ele>131</ele>
        <time>2022-04-07T14:14:13+02:00</time>
      </trkpt>
      <trkpt lat="48.82456" lon="1.40027">
        <ele>134</ele>
        <time>2022-04-07T14:14:33+02:00</time>
      </trkpt>
      <trkpt lat="48.8248" lon="1.40036">
        <ele>132</ele>
        <time>2022-04-07T14:14:59+02:00</time>
      </trkpt>
      <trkpt lat="48.82501" lon="1.40048">
        <ele>133</ele>
        <time>2022-04-07T14:15:16+02:00</time>
      </trkpt>
      <trkpt lat="48.82523" lon="1.40056">
        <ele>135</ele>
        <time>2022-04-07T14:15:33+02:00</time>
      </trkpt>
      <trkpt lat="48.82545" lon="1.4007">
        <ele>136</ele>
        <time>2022-04-07T14:15:53+02:00</time>
      </trkpt>
      <trkpt lat="48.82564" lon="1.40089">
        <ele>135</ele>
        <time>2022-04-07T14:16:11+02:00</time>
      </trkpt>
      <trkpt lat="48.82583" lon="1.40109">
        <ele>135</ele>
        <time>2022-04-07T14:16:30+02:00</time>
      </trkpt>
      <trkpt lat="48.82599" lon="1.40136">
        <ele>135</ele>
        <time>2022-04-07T14:16:49+02:00</time>
      </trkpt>
      <trkpt lat="48.82618" lon="1.40158">
        <ele>135</ele>
        <time>2022-04-07T14:17:09+02:00</time>
      </trkpt>
      <trkpt lat="48.82632" lon="1.40184">
        <ele>136</ele>
        <time>2022-04-07T14:17:25+02:00</time>
      </trkpt>
      <trkpt lat="48.82641" lon="1.40217">
        <ele>134</ele>
        <time>2022-04-07T14:17:43+02:00</time>
      </trkpt>
      <trkpt lat="48.8265" lon="1.4025">
        <ele>137</ele>
        <time>2022-04-07T14:18:01+02:00</time>
      </trkpt>
      <trkpt lat="48.82662" lon="1.4028">
        <ele>135</ele>
        <time>2022-04-07T14:18:19+02:00</time>
      </trkpt>
      <trkpt lat="48.82674" lon="1.40309">
        <ele>134</ele>
        <time>2022-04-07T14:18:39+02:00</time>
      </trkpt>
      <trkpt lat="48.82684" lon="1.4034">
        <ele>134</ele>
        <time>2022-04-07T14:18:57+02:00</time>
      </trkpt>
      <trkpt lat="48.82695" lon="1.40372">
        <ele>135</ele>
        <time>2022-04-07T14:19:14+02:00</time>
      </trkpt>
      <trkpt lat="48.82704" lon="1.40404">
        <ele>134</ele>
        <time>2022-04-07T14:19:33+02:00</time>
      </trkpt>
      <trkpt lat="48.82715" lon="1.40436">
        <ele>133</ele>
        <time>2022-04-07T14:19:54+02:00</time>
      </trkpt>
      <trkpt lat="48.82724" lon="1.40469">
        <ele>135</ele>
        <time>2022-04-07T14:20:11+02:00</time>
      </trkpt>
      <trkpt lat="48.82734" lon="1.40502">
        <ele>133</ele>
        <time>2022-04-07T14:20:30+02:00</time>
      </trkpt>
      <trkpt lat="48.82743" lon="1.40535">
        <ele>132</ele>
        <time>2022-04-07T14:20:51+02:00</time>
      </trkpt>
      <trkpt lat="48.82754" lon="1.40565">
        <ele>130</ele>
        <time>2022-04-07T14:21:12+02:00</time>
      </trkpt>
      <trkpt lat="48.82764" lon="1.40596">
        <ele>132</ele>
        <time>2022-04-07T14:21:29+02:00</time>
      </trkpt>
      <trkpt lat="48.82774" lon="1.40627">
        <ele>133</ele>
        <time>2022-04-07T14:21:50+02:00</time>
      </trkpt>
      <trkpt lat="48.82785" lon="1.40658">
        <ele>133</ele>
        <time>2022-04-07T14:22:11+02:00</time>
      </trkpt>
      <trkpt lat="48.82793" lon="1.4069">
        <ele>134</ele>
        <time>2022-04-07T14:22:29+02:00</time>
      </trkpt>
      <trkpt lat="48.82804" lon="1.40719">
        <ele>132</ele>
        <time>2022-04-07T14:22:48+02:00</time>
      </trkpt>
      <trkpt lat="48.82817" lon="1.4075">
        <ele>134</ele>
        <time>2022-04-07T14:23:08+02:00</time>
      </trkpt>
      <trkpt lat="48.82827" lon="1.40781">
        <ele>131</ele>
        <time>2022-04-07T14:23:28+02:00</time>
      </trkpt>
      <trkpt lat="48.82835" lon="1.40814">
        <ele>132</ele>
        <time>2022-04-07T14:23:46+02:00</time>
      </trkpt>
      <trkpt lat="48.82847" lon="1.40843">
        <ele>132</ele>
        <time>2022-04-07T14:24:04+02:00</time>
      </trkpt>
      <trkpt lat="48.82856" lon="1.40876">
        <ele>131</ele>
        <time>2022-04-07T14:24:21+02:00</time>
      </trkpt>
      <trkpt lat="48.82866" lon="1.40907">
        <ele>131</ele>
        <time>2022-04-07T14:24:39+02:00</time>
      </trkpt>
      <trkpt lat="48.82876" lon="1.4094">
        <ele>132</ele>
        <time>2022-04-07T14:24:57+02:00</time>
      </trkpt>
      <trkpt lat="48.82886" lon="1.40972">
        <ele>132</ele>
        <time>2022-04-07T14:25:16+02:00</time>
      </trkpt>
      <trkpt lat="48.82896" lon="1.41003">
        <ele>131</ele>
        <time>2022-04-07T14:25:34+02:00</time>
      </trkpt>
      <trkpt lat="48.82906" lon="1.41034">
        <ele>134</ele>
        <time>2022-04-07T14:25:53+02:00</time>
      </trkpt>
      <trkpt lat="48.82918" lon="1.41064">
        <ele>132</ele>
        <time>2022-04-07T14:26:10+02:00</time>
      </trkpt>
      <trkpt lat="48.82928" lon="1.41095">
        <ele>132</ele>
        <time>2022-04-07T14:26:28+02:00</time>
      </trkpt>
      <trkpt lat="48.82938" lon="1.41126">
        <ele>133</ele>
        <time>2022-04-07T14:26:46+02:00</time>
      </trkpt>
      <trkpt lat="48.82946" lon="1.41159">
        <ele>135</ele>
        <time>2022-04-07T14:27:06+02:00</time>
      </trkpt>
      <trkpt lat="48.82957" lon="1.41191">
        <ele>133</ele>
        <time>2022-04-07T14:27:26+02:00</time>
      </trkpt>
      <trkpt lat="48.82966" lon="1.41223">
        <ele>134</ele>
        <time>2022-04-07T14:27:47+02:00</time>
      </trkpt>
      <trkpt lat="48.82974" lon="1.41256">
        <ele>132</ele>
        <time>2022-04-07T14:28:07+02:00</time>
      </trkpt>
      <trkpt lat="48.82978" lon="1.41221">
        <ele>134</ele>
        <time>2022-04-07T14:29:50+02:00</time>
      </trkpt>
      <trkpt lat="48.82987" lon="1.41189">
        <ele>132</ele>
        <time>2022-04-07T14:30:10+02:00</time>
      </trkpt>
      <trkpt lat="48.82996" lon="1.41156">
        <ele>136</ele>
        <time>2022-04-07T14:30:29+02:00</time>
      </trkpt>
      <trkpt lat="48.83005" lon="1.41125">
        <ele>133</ele>
        <time>2022-04-07T14:30:48+02:00</time>
      </trkpt>
      <trkpt lat="48.83018" lon="1.41095">
        <ele>132</ele>
        <time>2022-04-07T14:31:07+02:00</time>
      </trkpt>
      <trkpt lat="48.83031" lon="1.41065">
        <ele>130</ele>
        <time>2022-04-07T14:31:25+02:00</time>
      </trkpt>
      <trkpt lat="48.8304" lon="1.41034">
        <ele>130</ele>
        <time>2022-04-07T14:31:42+02:00</time>
      </trkpt>
      <trkpt lat="48.83052" lon="1.41003">
        <ele>132</ele>
        <time>2022-04-07T14:32:00+02:00</time>
      </trkpt>
      <trkpt lat="48.83062" lon="1.40973">
        <ele>132</ele>
        <time>2022-04-07T14:32:20+02:00</time>
      </trkpt>
      <trkpt lat="48.83072" lon="1.4094">
        <ele>131</ele>
        <time>2022-04-07T14:32:42+02:00</time>
      </trkpt>
      <trkpt lat="48.83081" lon="1.40909">
        <ele>128</ele>
        <time>2022-04-07T14:33:03+02:00</time>
      </trkpt>
      <trkpt lat="48.83094" lon="1.4088">
        <ele>130</ele>
        <time>2022-04-07T14:33:22+02:00</time>
      </trkpt>
      <trkpt lat="48.83104" lon="1.40848">
        <ele>130</ele>
        <time>2022-04-07T14:33:42+02:00</time>
      </trkpt>
      <trkpt lat="48.83115" lon="1.40816">
        <ele>131</ele>
        <time>2022-04-07T14:34:01+02:00</time>
      </trkpt>
      <trkpt lat="48.83125" lon="1.40784">
        <ele>129</ele>
        <time>2022-04-07T14:35:20+02:00</time>
      </trkpt>
      <trkpt lat="48.83138" lon="1.40754">
        <ele>130</ele>
        <time>2022-04-07T14:35:37+02:00</time>
      </trkpt>
      <trkpt lat="48.83146" lon="1.40722">
        <ele>130</ele>
        <time>2022-04-07T14:35:55+02:00</time>
      </trkpt>
      <trkpt lat="48.83156" lon="1.4069">
        <ele>131</ele>
        <time>2022-04-07T14:36:14+02:00</time>
      </trkpt>
      <trkpt lat="48.83167" lon="1.40659">
        <ele>130</ele>
        <time>2022-04-07T14:36:33+02:00</time>
      </trkpt>
      <trkpt lat="48.83176" lon="1.40628">
        <ele>129</ele>
        <time>2022-04-07T14:36:52+02:00</time>
      </trkpt>
      <trkpt lat="48.83186" lon="1.40595">
        <ele>129</ele>
        <time>2022-04-07T14:37:07+02:00</time>
      </trkpt>
      <trkpt lat="48.83197" lon="1.40564">
        <ele>129</ele>
        <time>2022-04-07T14:37:26+02:00</time>
      </trkpt>
      <trkpt lat="48.83207" lon="1.40533">
        <ele>128</ele>
        <time>2022-04-07T14:37:42+02:00</time>
      </trkpt>
      <trkpt lat="48.83217" lon="1.40501">
        <ele>127</ele>
        <time>2022-04-07T14:38:00+02:00</time>
      </trkpt>
      <trkpt lat="48.83229" lon="1.40472">
        <ele>125</ele>
        <time>2022-04-07T14:38:17+02:00</time>
      </trkpt>
      <trkpt lat="48.83252" lon="1.40473">
        <ele>124</ele>
        <time>2022-04-07T14:38:38+02:00</time>
      </trkpt>
      <trkpt lat="48.83266" lon="1.40502">
        <ele>124</ele>
        <time>2022-04-07T14:39:01+02:00</time>
      </trkpt>
      <trkpt lat="48.83273" lon="1.40535">
        <ele>123</ele>
        <time>2022-04-07T14:39:19+02:00</time>
      </trkpt>
      <trkpt lat="48.83282" lon="1.40567">
        <ele>124</ele>
        <time>2022-04-07T14:39:39+02:00</time>
      </trkpt>
      <trkpt lat="48.8329" lon="1.406">
        <ele>122</ele>
        <time>2022-04-07T14:39:56+02:00</time>
      </trkpt>
      <trkpt lat="48.83299" lon="1.40632">
        <ele>124</ele>
        <time>2022-04-07T14:40:14+02:00</time>
      </trkpt>
      <trkpt lat="48.83309" lon="1.40662">
        <ele>127</ele>
        <time>2022-04-07T14:40:34+02:00</time>
      </trkpt>
      <trkpt lat="48.83317" lon="1.40694">
        <ele>130</ele>
        <time>2022-04-07T14:40:58+02:00</time>
      </trkpt>
      <trkpt lat="48.83327" lon="1.40725">
        <ele>131</ele>
        <time>2022-04-07T14:41:21+02:00</time>
      </trkpt>
      <trkpt lat="48.83337" lon="1.40756">
        <ele>130</ele>
        <time>2022-04-07T14:41:48+02:00</time>
      </trkpt>
      <trkpt lat="48.83347" lon="1.40787">
        <ele>131</ele>
        <time>2022-04-07T14:43:05+02:00</time>
      </trkpt>
      <trkpt lat="48.83357" lon="1.40819">
        <ele>131</ele>
        <time>2022-04-07T14:43:27+02:00</time>
      </trkpt>
      <trkpt lat="48.83368" lon="1.4085">
        <ele>131</ele>
        <time>2022-04-07T14:43:47+02:00</time>
      </trkpt>
      <trkpt lat="48.83376" lon="1.40884">
        <ele>131</ele>
        <time>2022-04-07T14:44:06+02:00</time>
      </trkpt>
      <trkpt lat="48.83381" lon="1.40917">
        <ele>135</ele>
        <time>2022-04-07T14:44:22+02:00</time>
      </trkpt>
      <trkpt lat="48.83392" lon="1.40947">
        <ele>136</ele>
        <time>2022-04-07T14:44:41+02:00</time>
      </trkpt>
      <trkpt lat="48.83402" lon="1.40977">
        <ele>135</ele>
        <time>2022-04-07T14:44:59+02:00</time>
      </trkpt>
      <trkpt lat="48.83411" lon="1.4101">
        <ele>136</ele>
        <time>2022-04-07T14:45:19+02:00</time>
      </trkpt>
      <trkpt lat="48.8342" lon="1.41043">
        <ele>136</ele>
        <time>2022-04-07T14:45:40+02:00</time>
      </trkpt>
      <trkpt lat="48.83429" lon="1.41074">
        <ele>134</ele>
        <time>2022-04-07T14:45:58+02:00</time>
      </trkpt>
      <trkpt lat="48.83444" lon="1.41101">
        <ele>133</ele>
        <time>2022-04-07T14:53:18+02:00</time>
      </trkpt>
      <trkpt lat="48.8345" lon="1.41135">
        <ele>136</ele>
        <time>2022-04-07T14:53:56+02:00</time>
      </trkpt>
      <trkpt lat="48.8346" lon="1.41167">
        <ele>136</ele>
        <time>2022-04-07T14:54:21+02:00</time>
      </trkpt>
      <trkpt lat="48.8347" lon="1.41199">
        <ele>136</ele>
        <time>2022-04-07T14:54:41+02:00</time>
      </trkpt>
      <trkpt lat="48.83479" lon="1.4123">
        <ele>137</ele>
        <time>2022-04-07T14:55:01+02:00</time>
      </trkpt>
      <trkpt lat="48.83489" lon="1.41262">
        <ele>137</ele>
        <time>2022-04-07T14:55:20+02:00</time>
      </trkpt>
      <trkpt lat="48.83498" lon="1.41295">
        <ele>136</ele>
        <time>2022-04-07T14:55:41+02:00</time>
      </trkpt>
      <trkpt lat="48.83506" lon="1.41327">
        <ele>134</ele>
        <time>2022-04-07T14:56:00+02:00</time>
      </trkpt>
      <trkpt lat="48.83515" lon="1.4136">
        <ele>132</ele>
        <time>2022-04-07T14:56:22+02:00</time>
      </trkpt>
      <trkpt lat="48.83524" lon="1.41392">
        <ele>132</ele>
        <time>2022-04-07T14:56:42+02:00</time>
      </trkpt>
      <trkpt lat="48.83533" lon="1.41424">
        <ele>131</ele>
        <time>2022-04-07T14:57:10+02:00</time>
      </trkpt>
      <trkpt lat="48.83543" lon="1.41456">
        <ele>131</ele>
        <time>2022-04-07T14:57:30+02:00</time>
      </trkpt>
      <trkpt lat="48.83551" lon="1.41489">
        <ele>131</ele>
        <time>2022-04-07T14:57:49+02:00</time>
      </trkpt>
      <trkpt lat="48.83564" lon="1.41519">
        <ele>131</ele>
        <time>2022-04-07T14:58:10+02:00</time>
      </trkpt>
      <trkpt lat="48.83574" lon="1.4155">
        <ele>131</ele>
        <time>2022-04-07T14:58:36+02:00</time>
      </trkpt>
      <trkpt lat="48.83592" lon="1.41531">
        <ele>132</ele>
        <time>2022-04-07T14:59:10+02:00</time>
      </trkpt>
      <trkpt lat="48.83604" lon="1.41502">
        <ele>133</ele>
        <time>2022-04-07T14:59:28+02:00</time>
      </trkpt>
      <trkpt lat="48.83614" lon="1.41471">
        <ele>132</ele>
        <time>2022-04-07T14:59:48+02:00</time>
      </trkpt>
      <trkpt lat="48.83625" lon="1.41439">
        <ele>133</ele>
        <time>2022-04-07T15:00:07+02:00</time>
      </trkpt>
      <trkpt lat="48.83633" lon="1.41407">
        <ele>133</ele>
        <time>2022-04-07T15:00:25+02:00</time>
      </trkpt>
      <trkpt lat="48.83641" lon="1.41374">
        <ele>131</ele>
        <time>2022-04-07T15:00:45+02:00</time>
      </trkpt>
      <trkpt lat="48.83648" lon="1.4134">
        <ele>134</ele>
        <time>2022-04-07T15:01:03+02:00</time>
      </trkpt>
      <trkpt lat="48.83656" lon="1.41308">
        <ele>134</ele>
        <time>2022-04-07T15:01:23+02:00</time>
      </trkpt>
      <trkpt lat="48.83665" lon="1.41277">
        <ele>133</ele>
        <time>2022-04-07T15:01:43+02:00</time>
      </trkpt>
      <trkpt lat="48.83672" lon="1.41242">
        <ele>132</ele>
        <time>2022-04-07T15:02:02+02:00</time>
      </trkpt>
      <trkpt lat="48.8368" lon="1.4121">
        <ele>135</ele>
        <time>2022-04-07T15:02:20+02:00</time>
      </trkpt>
      <trkpt lat="48.83692" lon="1.4118">
        <ele>135</ele>
        <time>2022-04-07T15:02:43+02:00</time>
      </trkpt>
      <trkpt lat="48.83701" lon="1.41148">
        <ele>135</ele>
        <time>2022-04-07T15:03:04+02:00</time>
      </trkpt>
      <trkpt lat="48.83715" lon="1.41121">
        <ele>134</ele>
        <time>2022-04-07T15:03:22+02:00</time>
      </trkpt>
      <trkpt lat="48.83729" lon="1.41094">
        <ele>133</ele>
        <time>2022-04-07T15:03:39+02:00</time>
      </trkpt>
      <trkpt lat="48.83739" lon="1.41063">
        <ele>130</ele>
        <time>2022-04-07T15:03:58+02:00</time>
      </trkpt>
      <trkpt lat="48.83753" lon="1.41034">
        <ele>128</ele>
        <time>2022-04-07T15:04:16+02:00</time>
      </trkpt>
      <trkpt lat="48.83766" lon="1.41006">
        <ele>130</ele>
        <time>2022-04-07T15:04:34+02:00</time>
      </trkpt>
      <trkpt lat="48.83781" lon="1.4098">
        <ele>132</ele>
        <time>2022-04-07T15:04:52+02:00</time>
      </trkpt>
      <trkpt lat="48.838" lon="1.40961">
        <ele>128</ele>
        <time>2022-04-07T15:05:11+02:00</time>
      </trkpt>
      <trkpt lat="48.83818" lon="1.4094">
        <ele>127</ele>
        <time>2022-04-07T15:05:30+02:00</time>
      </trkpt>
      <trkpt lat="48.83838" lon="1.40921">
        <ele>125</ele>
        <time>2022-04-07T15:05:50+02:00</time>
      </trkpt>
      <trkpt lat="48.83861" lon="1.40921">
        <ele>118</ele>
        <time>2022-04-07T15:06:12+02:00</time>
      </trkpt>
      <trkpt lat="48.83867" lon="1.40954">
        <ele>125</ele>
        <time>2022-04-07T15:07:23+02:00</time>
      </trkpt>
      <trkpt lat="48.83885" lon="1.40976">
        <ele>122</ele>
        <time>2022-04-07T15:07:54+02:00</time>
      </trkpt>
      <trkpt lat="48.83898" lon="1.41005">
        <ele>122</ele>
        <time>2022-04-07T15:08:20+02:00</time>
      </trkpt>
      <trkpt lat="48.8391" lon="1.41034">
        <ele>124</ele>
        <time>2022-04-07T15:08:46+02:00</time>
      </trkpt>
      <trkpt lat="48.83918" lon="1.41067">
        <ele>125</ele>
        <time>2022-04-07T15:09:11+02:00</time>
      </trkpt>
      <trkpt lat="48.83925" lon="1.411">
        <ele>124</ele>
        <time>2022-04-07T15:09:36+02:00</time>
      </trkpt>
      <trkpt lat="48.83933" lon="1.41132">
        <ele>125</ele>
        <time>2022-04-07T15:09:58+02:00</time>
      </trkpt>
      <trkpt lat="48.83939" lon="1.41166">
        <ele>127</ele>
        <time>2022-04-07T15:10:20+02:00</time>
      </trkpt>
      <trkpt lat="48.83936" lon="1.412">
        <ele>126</ele>
        <time>2022-04-07T15:10:41+02:00</time>
      </trkpt>
      <trkpt lat="48.83932" lon="1.41234">
        <ele>130</ele>
        <time>2022-04-07T15:11:04+02:00</time>
      </trkpt>
      <trkpt lat="48.83929" lon="1.41269">
        <ele>131</ele>
        <time>2022-04-07T15:11:27+02:00</time>
      </trkpt>
      <trkpt lat="48.83924" lon="1.41302">
        <ele>131</ele>
        <time>2022-04-07T15:11:49+02:00</time>
      </trkpt>
      <trkpt lat="48.83918" lon="1.41336">
        <ele>131</ele>
        <time>2022-04-07T15:12:10+02:00</time>
      </trkpt>
      <trkpt lat="48.83916" lon="1.41371">
        <ele>132</ele>
        <time>2022-04-07T15:12:34+02:00</time>
      </trkpt>
      <trkpt lat="48.83915" lon="1.41405">
        <ele>134</ele>
        <time>2022-04-07T15:12:54+02:00</time>
      </trkpt>
      <trkpt lat="48.83916" lon="1.41441">
        <ele>135</ele>
        <time>2022-04-07T15:13:16+02:00</time>
      </trkpt>
      <trkpt lat="48.83925" lon="1.41473">
        <ele>133</ele>
        <time>2022-04-07T15:13:37+02:00</time>
      </trkpt>
      <trkpt lat="48.83936" lon="1.41504">
        <ele>133</ele>
        <time>2022-04-07T15:13:58+02:00</time>
      </trkpt>
      <trkpt lat="48.83946" lon="1.41536">
        <ele>134</ele>
        <time>2022-04-07T15:14:20+02:00</time>
      </trkpt>
      <trkpt lat="48.83953" lon="1.41568">
        <ele>134</ele>
        <time>2022-04-07T15:14:42+02:00</time>
      </trkpt>
      <trkpt lat="48.83958" lon="1.41603">
        <ele>134</ele>
        <time>2022-04-07T15:15:01+02:00</time>
      </trkpt>
      <trkpt lat="48.83962" lon="1.41637">
        <ele>133</ele>
        <time>2022-04-07T15:15:24+02:00</time>
      </trkpt>
      <trkpt lat="48.83969" lon="1.41671">
        <ele>134</ele>
        <time>2022-04-07T15:15:46+02:00</time>
      </trkpt>
      <trkpt lat="48.83981" lon="1.417">
        <ele>135</ele>
        <time>2022-04-07T15:16:08+02:00</time>
      </trkpt>
      <trkpt lat="48.83996" lon="1.41727">
        <ele>134</ele>
        <time>2022-04-07T15:16:27+02:00</time>
      </trkpt>
      <trkpt lat="48.84008" lon="1.41756">
        <ele>133</ele>
        <time>2022-04-07T15:16:46+02:00</time>
      </trkpt>
      <trkpt lat="48.84008" lon="1.41791">
        <ele>135</ele>
        <time>2022-04-07T15:17:07+02:00</time>
      </trkpt>
      <trkpt lat="48.83999" lon="1.41823">
        <ele>134</ele>
        <time>2022-04-07T15:17:35+02:00</time>
      </trkpt>
      <trkpt lat="48.83989" lon="1.41855">
        <ele>133</ele>
        <time>2022-04-07T15:17:54+02:00</time>
      </trkpt>
      <trkpt lat="48.83986" lon="1.41891">
        <ele>132</ele>
        <time>2022-04-07T15:18:18+02:00</time>
      </trkpt>
      <trkpt lat="48.83984" lon="1.41926">
        <ele>131</ele>
        <time>2022-04-07T15:18:41+02:00</time>
      </trkpt>
      <trkpt lat="48.83977" lon="1.41959">
        <ele>131</ele>
        <time>2022-04-07T15:19:00+02:00</time>
      </trkpt>
      <trkpt lat="48.83982" lon="1.41993">
        <ele>129</ele>
        <time>2022-04-07T15:19:18+02:00</time>
      </trkpt>
      <trkpt lat="48.83993" lon="1.42025">
        <ele>129</ele>
        <time>2022-04-07T15:19:37+02:00</time>
      </trkpt>
      <trkpt lat="48.84005" lon="1.42054">
        <ele>129</ele>
        <time>2022-04-07T15:19:56+02:00</time>
      </trkpt>
      <trkpt lat="48.84018" lon="1.42085">
        <ele>131</ele>
        <time>2022-04-07T15:20:13+02:00</time>
      </trkpt>
      <trkpt lat="48.84029" lon="1.42115">
        <ele>130</ele>
        <time>2022-04-07T15:20:31+02:00</time>
      </trkpt>
      <trkpt lat="48.84037" lon="1.42147">
        <ele>131</ele>
        <time>2022-04-07T15:20:49+02:00</time>
      </trkpt>
      <trkpt lat="48.84058" lon="1.42161">
        <ele>129</ele>
        <time>2022-04-07T15:21:16+02:00</time>
      </trkpt>
      <trkpt lat="48.84078" lon="1.42139">
        <ele>130</ele>
        <time>2022-04-07T15:21:34+02:00</time>
      </trkpt>
      <trkpt lat="48.84096" lon="1.42117">
        <ele>131</ele>
        <time>2022-04-07T15:21:52+02:00</time>
      </trkpt>
      <trkpt lat="48.84117" lon="1.42098">
        <ele>133</ele>
        <time>2022-04-07T15:22:10+02:00</time>
      </trkpt>
      <trkpt lat="48.84137" lon="1.42082">
        <ele>132</ele>
        <time>2022-04-07T15:22:29+02:00</time>
      </trkpt>
      <trkpt lat="48.84158" lon="1.42094">
        <ele>129</ele>
        <time>2022-04-07T15:22:48+02:00</time>
      </trkpt>
      <trkpt lat="48.84178" lon="1.42112">
        <ele>127</ele>
        <time>2022-04-07T15:23:05+02:00</time>
      </trkpt>
      <trkpt lat="48.84198" lon="1.4213">
        <ele>124</ele>
        <time>2022-04-07T15:23:23+02:00</time>
      </trkpt>
      <trkpt lat="48.84219" lon="1.42145">
        <ele>123</ele>
        <time>2022-04-07T15:23:42+02:00</time>
      </trkpt>
      <trkpt lat="48.84238" lon="1.42165">
        <ele>119</ele>
        <time>2022-04-07T15:24:02+02:00</time>
      </trkpt>
      <trkpt lat="48.8426" lon="1.4218">
        <ele>117</ele>
        <time>2022-04-07T15:24:21+02:00</time>
      </trkpt>
      <trkpt lat="48.84281" lon="1.42191">
        <ele>115</ele>
        <time>2022-04-07T15:24:39+02:00</time>
      </trkpt>
      <trkpt lat="48.84301" lon="1.42207">
        <ele>112</ele>
        <time>2022-04-07T15:24:59+02:00</time>
      </trkpt>
      <trkpt lat="48.84321" lon="1.42225">
        <ele>112</ele>
        <time>2022-04-07T15:25:18+02:00</time>
      </trkpt>
      <trkpt lat="48.84344" lon="1.42234">
        <ele>109</ele>
        <time>2022-04-07T15:25:37+02:00</time>
      </trkpt>
      <trkpt lat="48.84366" lon="1.42241">
        <ele>108</ele>
        <time>2022-04-07T15:25:56+02:00</time>
      </trkpt>
      <trkpt lat="48.84388" lon="1.42254">
        <ele>106</ele>
        <time>2022-04-07T15:26:18+02:00</time>
      </trkpt>
      <trkpt lat="48.84403" lon="1.42281">
        <ele>103</ele>
        <time>2022-04-07T15:27:00+02:00</time>
      </trkpt>
      <trkpt lat="48.84416" lon="1.42313">
        <ele>101</ele>
        <time>2022-04-07T15:27:20+02:00</time>
      </trkpt>
      <trkpt lat="48.84428" lon="1.42343">
        <ele>99</ele>
        <time>2022-04-07T15:27:38+02:00</time>
      </trkpt>
      <trkpt lat="48.84441" lon="1.42372">
        <ele>98</ele>
        <time>2022-04-07T15:27:54+02:00</time>
      </trkpt>
      <trkpt lat="48.84455" lon="1.424">
        <ele>94</ele>
        <time>2022-04-07T15:28:14+02:00</time>
      </trkpt>
      <trkpt lat="48.8447" lon="1.42427">
        <ele>90</ele>
        <time>2022-04-07T15:28:35+02:00</time>
      </trkpt>
      <trkpt lat="48.84488" lon="1.4245">
        <ele>86</ele>
        <time>2022-04-07T15:28:55+02:00</time>
      </trkpt>
      <trkpt lat="48.84505" lon="1.42472">
        <ele>84</ele>
        <time>2022-04-07T15:29:13+02:00</time>
      </trkpt>
      <trkpt lat="48.84524" lon="1.4249">
        <ele>81</ele>
        <time>2022-04-07T15:29:32+02:00</time>
      </trkpt>
      <trkpt lat="48.8453" lon="1.42524">
        <ele>83</ele>
        <time>2022-04-07T15:29:52+02:00</time>
      </trkpt>
      <trkpt lat="48.84535" lon="1.42559">
        <ele>84</ele>
        <time>2022-04-07T15:30:11+02:00</time>
      </trkpt>
      <trkpt lat="48.84541" lon="1.42592">
        <ele>85</ele>
        <time>2022-04-07T15:30:29+02:00</time>
      </trkpt>
      <trkpt lat="48.84545" lon="1.42626">
        <ele>86</ele>
        <time>2022-04-07T15:30:47+02:00</time>
      </trkpt>
      <trkpt lat="48.84549" lon="1.42661">
        <ele>86</ele>
        <time>2022-04-07T15:31:06+02:00</time>
      </trkpt>
      <trkpt lat="48.84553" lon="1.42695">
        <ele>86</ele>
        <time>2022-04-07T15:31:25+02:00</time>
      </trkpt>
      <trkpt lat="48.84531" lon="1.42709">
        <ele>90</ele>
        <time>2022-04-07T15:31:47+02:00</time>
      </trkpt>
      <trkpt lat="48.84509" lon="1.4272">
        <ele>94</ele>
        <time>2022-04-07T15:32:07+02:00</time>
      </trkpt>
      <trkpt lat="48.84514" lon="1.42754">
        <ele>92</ele>
        <time>2022-04-07T15:32:31+02:00</time>
      </trkpt>
      <trkpt lat="48.84522" lon="1.42787">
        <ele>91</ele>
        <time>2022-04-07T15:32:50+02:00</time>
      </trkpt>
      <trkpt lat="48.84529" lon="1.4282">
        <ele>92</ele>
        <time>2022-04-07T15:33:09+02:00</time>
      </trkpt>
      <trkpt lat="48.84535" lon="1.42855">
        <ele>92</ele>
        <time>2022-04-07T15:33:28+02:00</time>
      </trkpt>
      <trkpt lat="48.84543" lon="1.42889">
        <ele>94</ele>
        <time>2022-04-07T15:33:46+02:00</time>
      </trkpt>
      <trkpt lat="48.84561" lon="1.42909">
        <ele>90</ele>
        <time>2022-04-07T15:34:11+02:00</time>
      </trkpt>
      <trkpt lat="48.8457" lon="1.42942">
        <ele>90</ele>
        <time>2022-04-07T15:34:31+02:00</time>
      </trkpt>
      <trkpt lat="48.84576" lon="1.42975">
        <ele>92</ele>
        <time>2022-04-07T15:34:50+02:00</time>
      </trkpt>
      <trkpt lat="48.84582" lon="1.43009">
        <ele>92</ele>
        <time>2022-04-07T15:35:09+02:00</time>
      </trkpt>
      <trkpt lat="48.8459" lon="1.43042">
        <ele>92</ele>
        <time>2022-04-07T15:35:27+02:00</time>
      </trkpt>
      <trkpt lat="48.84599" lon="1.43073">
        <ele>93</ele>
        <time>2022-04-07T15:35:45+02:00</time>
      </trkpt>
      <trkpt lat="48.8461" lon="1.43104">
        <ele>91</ele>
        <time>2022-04-07T15:36:05+02:00</time>
      </trkpt>
      <trkpt lat="48.84622" lon="1.43134">
        <ele>91</ele>
        <time>2022-04-07T15:36:24+02:00</time>
      </trkpt>
      <trkpt lat="48.84645" lon="1.43129">
        <ele>86</ele>
        <time>2022-04-07T15:36:47+02:00</time>
      </trkpt>
      <trkpt lat="48.84667" lon="1.43119">
        <ele>84</ele>
        <time>2022-04-07T15:37:08+02:00</time>
      </trkpt>
      <trkpt lat="48.8469" lon="1.43107">
        <ele>82</ele>
        <time>2022-04-07T15:37:29+02:00</time>
      </trkpt>
      <trkpt lat="48.84711" lon="1.43096">
        <ele>80</ele>
        <time>2022-04-07T15:37:48+02:00</time>
      </trkpt>
      <trkpt lat="48.84732" lon="1.43083">
        <ele>77</ele>
        <time>2022-04-07T15:38:09+02:00</time>
      </trkpt>
      <trkpt lat="48.84755" lon="1.4308">
        <ele>77</ele>
        <time>2022-04-07T15:38:30+02:00</time>
      </trkpt>
      <trkpt lat="48.84773" lon="1.43102">
        <ele>75</ele>
        <time>2022-04-07T15:38:54+02:00</time>
      </trkpt>
      <trkpt lat="48.84796" lon="1.43107">
        <ele>77</ele>
        <time>2022-04-07T15:39:15+02:00</time>
      </trkpt>
      <trkpt lat="48.84819" lon="1.43103">
        <ele>79</ele>
        <time>2022-04-07T15:42:18+02:00</time>
      </trkpt>
      <trkpt lat="48.8483" lon="1.43072">
        <ele>78</ele>
        <time>2022-04-07T15:42:41+02:00</time>
      </trkpt>
      <trkpt lat="48.84852" lon="1.4306">
        <ele>77</ele>
        <time>2022-04-07T15:43:02+02:00</time>
      </trkpt>
      <trkpt lat="48.84874" lon="1.43049">
        <ele>76</ele>
        <time>2022-04-07T15:43:22+02:00</time>
      </trkpt>
      <trkpt lat="48.84895" lon="1.43038">
        <ele>77</ele>
        <time>2022-04-07T15:43:42+02:00</time>
      </trkpt>
      <trkpt lat="48.84917" lon="1.43027">
        <ele>75</ele>
        <time>2022-04-07T15:44:03+02:00</time>
      </trkpt>
      <trkpt lat="48.84939" lon="1.4302">
        <ele>75</ele>
        <time>2022-04-07T15:44:24+02:00</time>
      </trkpt>
      <trkpt lat="48.84962" lon="1.43024">
        <ele>76</ele>
        <time>2022-04-07T15:44:45+02:00</time>
      </trkpt>
      <trkpt lat="48.84986" lon="1.43021">
        <ele>74</ele>
        <time>2022-04-07T15:45:06+02:00</time>
      </trkpt>
      <trkpt lat="48.85006" lon="1.43006">
        <ele>75</ele>
        <time>2022-04-07T15:45:28+02:00</time>
      </trkpt>
      <trkpt lat="48.85027" lon="1.42988">
        <ele>74</ele>
        <time>2022-04-07T15:45:50+02:00</time>
      </trkpt>
      <trkpt lat="48.85042" lon="1.42964">
        <ele>75</ele>
        <time>2022-04-07T15:46:13+02:00</time>
      </trkpt>
      <trkpt lat="48.85037" lon="1.4293">
        <ele>74</ele>
        <time>2022-04-07T15:46:32+02:00</time>
      </trkpt>
      <trkpt lat="48.85032" lon="1.42895">
        <ele>75</ele>
        <time>2022-04-07T15:46:54+02:00</time>
      </trkpt>
      <trkpt lat="48.85027" lon="1.4286">
        <ele>74</ele>
        <time>2022-04-07T15:47:15+02:00</time>
      </trkpt>
      <trkpt lat="48.85027" lon="1.42825">
        <ele>73</ele>
        <time>2022-04-07T15:47:34+02:00</time>
      </trkpt>
      <trkpt lat="48.85024" lon="1.4279">
        <ele>70</ele>
        <time>2022-04-07T15:47:55+02:00</time>
      </trkpt>
      <trkpt lat="48.85036" lon="1.4276">
        <ele>71</ele>
        <time>2022-04-07T15:48:19+02:00</time>
      </trkpt>
      <trkpt lat="48.85057" lon="1.42746">
        <ele>70</ele>
        <time>2022-04-07T15:48:39+02:00</time>
      </trkpt>
      <trkpt lat="48.85077" lon="1.42733">
        <ele>64</ele>
        <time>2022-04-07T15:49:01+02:00</time>
      </trkpt>
      <trkpt lat="48.85099" lon="1.42722">
        <ele>63</ele>
        <time>2022-04-07T15:49:28+02:00</time>
      </trkpt>
      <trkpt lat="48.85121" lon="1.42714">
        <ele>64</ele>
        <time>2022-04-07T15:49:49+02:00</time>
      </trkpt>
      <trkpt lat="48.85138" lon="1.42737">
        <ele>62</ele>
        <time>2022-04-07T15:50:16+02:00</time>
      </trkpt>
      <trkpt lat="48.85147" lon="1.42769">
        <ele>61</ele>
        <time>2022-04-07T15:50:35+02:00</time>
      </trkpt>
      <trkpt lat="48.85157" lon="1.428">
        <ele>62</ele>
        <time>2022-04-07T15:50:56+02:00</time>
      </trkpt>
      <trkpt lat="48.85168" lon="1.4283">
        <ele>61</ele>
        <time>2022-04-07T15:51:17+02:00</time>
      </trkpt>
      <trkpt lat="48.85182" lon="1.42857">
        <ele>61</ele>
        <time>2022-04-07T15:51:38+02:00</time>
      </trkpt>
      <trkpt lat="48.85193" lon="1.42888">
        <ele>61</ele>
        <time>2022-04-07T15:52:01+02:00</time>
      </trkpt>
      <trkpt lat="48.85202" lon="1.42919">
        <ele>61</ele>
        <time>2022-04-07T15:52:19+02:00</time>
      </trkpt>
      <trkpt lat="48.85213" lon="1.42948">
        <ele>62</ele>
        <time>2022-04-07T15:52:42+02:00</time>
      </trkpt>
      <trkpt lat="48.85223" lon="1.4298">
        <ele>62</ele>
        <time>2022-04-07T15:53:05+02:00</time>
      </trkpt>
      <trkpt lat="48.85233" lon="1.43012">
        <ele>62</ele>
        <time>2022-04-07T15:53:23+02:00</time>
      </trkpt>
      <trkpt lat="48.85242" lon="1.43044">
        <ele>63</ele>
        <time>2022-04-07T15:53:44+02:00</time>
      </trkpt>
      <trkpt lat="48.85248" lon="1.43077">
        <ele>62</ele>
        <time>2022-04-07T15:54:09+02:00</time>
      </trkpt>
      <trkpt lat="48.8526" lon="1.43108">
        <ele>63</ele>
        <time>2022-04-07T15:54:31+02:00</time>
      </trkpt>
      <trkpt lat="48.8527" lon="1.43139">
        <ele>64</ele>
        <time>2022-04-07T15:54:52+02:00</time>
      </trkpt>
      <trkpt lat="48.85281" lon="1.43169">
        <ele>64</ele>
        <time>2022-04-07T15:55:13+02:00</time>
      </trkpt>
      <trkpt lat="48.85293" lon="1.43198">
        <ele>64</ele>
        <time>2022-04-07T15:55:31+02:00</time>
      </trkpt>
      <trkpt lat="48.85301" lon="1.43231">
        <ele>64</ele>
        <time>2022-04-07T15:55:55+02:00</time>
      </trkpt>
      <trkpt lat="48.8531" lon="1.43265">
        <ele>65</ele>
        <time>2022-04-07T15:56:16+02:00</time>
      </trkpt>
      <trkpt lat="48.85322" lon="1.43296">
        <ele>63</ele>
        <time>2022-04-07T15:56:38+02:00</time>
      </trkpt>
      <trkpt lat="48.85335" lon="1.43325">
        <ele>64</ele>
        <time>2022-04-07T15:56:59+02:00</time>
      </trkpt>
      <trkpt lat="48.85344" lon="1.43357">
        <ele>63</ele>
        <time>2022-04-07T15:57:25+02:00</time>
      </trkpt>
      <trkpt lat="48.8535" lon="1.4339">
        <ele>64</ele>
        <time>2022-04-07T15:57:54+02:00</time>
      </trkpt>
      <trkpt lat="48.85365" lon="1.43419">
        <ele>64</ele>
        <time>2022-04-07T15:58:20+02:00</time>
      </trkpt>
      <trkpt lat="48.85384" lon="1.43439">
        <ele>64</ele>
        <time>2022-04-07T15:58:41+02:00</time>
      </trkpt>
      <trkpt lat="48.85403" lon="1.43457">
        <ele>65</ele>
        <time>2022-04-07T15:59:02+02:00</time>
      </trkpt>
      <trkpt lat="48.85422" lon="1.43476">
        <ele>64</ele>
        <time>2022-04-07T15:59:28+02:00</time>
      </trkpt>
      <trkpt lat="48.85431" lon="1.43507">
        <ele>65</ele>
        <time>2022-04-07T15:59:49+02:00</time>
      </trkpt>
      <trkpt lat="48.85436" lon="1.43542">
        <ele>66</ele>
        <time>2022-04-07T16:00:10+02:00</time>
      </trkpt>
      <trkpt lat="48.85444" lon="1.43574">
        <ele>64</ele>
        <time>2022-04-07T16:00:36+02:00</time>
      </trkpt>
      <trkpt lat="48.85468" lon="1.43577">
        <ele>64</ele>
        <time>2022-04-07T16:00:58+02:00</time>
      </trkpt>
      <trkpt lat="48.85459" lon="1.43609">
        <ele>66</ele>
        <time>2022-04-07T16:01:25+02:00</time>
      </trkpt>
      <trkpt lat="48.85464" lon="1.43642">
        <ele>65</ele>
        <time>2022-04-07T16:01:54+02:00</time>
      </trkpt>
      <trkpt lat="48.85481" lon="1.43666">
        <ele>65</ele>
        <time>2022-04-07T16:02:16+02:00</time>
      </trkpt>
      <trkpt lat="48.85491" lon="1.43696">
        <ele>65</ele>
        <time>2022-04-07T16:02:37+02:00</time>
      </trkpt>
      <trkpt lat="48.85501" lon="1.43728">
        <ele>65</ele>
        <time>2022-04-07T16:02:57+02:00</time>
      </trkpt>
      <trkpt lat="48.85512" lon="1.4376">
        <ele>65</ele>
        <time>2022-04-07T16:03:25+02:00</time>
      </trkpt>
      <trkpt lat="48.85526" lon="1.43786">
        <ele>66</ele>
        <time>2022-04-07T16:03:46+02:00</time>
      </trkpt>
      <trkpt lat="48.85538" lon="1.43817">
        <ele>66</ele>
        <time>2022-04-07T16:04:08+02:00</time>
      </trkpt>
      <trkpt lat="48.8555" lon="1.43846">
        <ele>66</ele>
        <time>2022-04-07T16:04:30+02:00</time>
      </trkpt>
      <trkpt lat="48.85565" lon="1.43873">
        <ele>66</ele>
        <time>2022-04-07T16:04:49+02:00</time>
      </trkpt>
      <trkpt lat="48.85582" lon="1.43894">
        <ele>65</ele>
        <time>2022-04-07T16:05:10+02:00</time>
      </trkpt>
      <trkpt lat="48.85597" lon="1.4392">
        <ele>67</ele>
        <time>2022-04-07T16:05:32+02:00</time>
      </trkpt>
      <trkpt lat="48.85618" lon="1.43936">
        <ele>66</ele>
        <time>2022-04-07T16:06:21+02:00</time>
      </trkpt>
      <trkpt lat="48.85639" lon="1.43924">
        <ele>66</ele>
        <time>2022-04-07T16:06:43+02:00</time>
      </trkpt>
      <trkpt lat="48.85659" lon="1.43908">
        <ele>66</ele>
        <time>2022-04-07T16:07:02+02:00</time>
      </trkpt>
      <trkpt lat="48.85668" lon="1.4394">
        <ele>64</ele>
        <time>2022-04-07T16:07:47+02:00</time>
      </trkpt>
      <trkpt lat="48.8569" lon="1.4395">
        <ele>65</ele>
        <time>2022-04-07T16:08:09+02:00</time>
      </trkpt>
      <trkpt lat="48.85714" lon="1.43949">
        <ele>63</ele>
        <time>2022-04-07T16:08:32+02:00</time>
      </trkpt>
      <trkpt lat="48.85736" lon="1.43941">
        <ele>64</ele>
        <time>2022-04-07T16:08:50+02:00</time>
      </trkpt>
      <trkpt lat="48.85758" lon="1.43932">
        <ele>65</ele>
        <time>2022-04-07T16:09:11+02:00</time>
      </trkpt>
      <trkpt lat="48.85779" lon="1.43921">
        <ele>65</ele>
        <time>2022-04-07T16:09:34+02:00</time>
      </trkpt>
      <trkpt lat="48.85802" lon="1.43915">
        <ele>66</ele>
        <time>2022-04-07T16:10:05+02:00</time>
      </trkpt>
      <trkpt lat="48.85808" lon="1.43882">
        <ele>61</ele>
        <time>2022-04-07T16:10:49+02:00</time>
      </trkpt>
      <trkpt lat="48.85804" lon="1.43848">
        <ele>61</ele>
        <time>2022-04-07T16:11:24+02:00</time>
      </trkpt>
      <trkpt lat="48.85814" lon="1.43817">
        <ele>63</ele>
        <time>2022-04-07T16:11:53+02:00</time>
      </trkpt>
      <trkpt lat="48.85814" lon="1.43783">
        <ele>64</ele>
        <time>2022-04-07T16:12:45+02:00</time>
      </trkpt>
      <trkpt lat="48.85811" lon="1.43747">
        <ele>63</ele>
        <time>2022-04-07T16:13:11+02:00</time>
      </trkpt>
      <trkpt lat="48.85832" lon="1.43732">
        <ele>61</ele>
        <time>2022-04-07T16:14:25+02:00</time>
      </trkpt>
      <trkpt lat="48.8582" lon="1.43766">
        <ele>61</ele>
        <time>2022-04-07T16:15:48+02:00</time>
      </trkpt>
      <trkpt lat="48.85821" lon="1.438">
        <ele>63</ele>
        <time>2022-04-07T16:18:43+02:00</time>
      </trkpt>
      <trkpt lat="48.85823" lon="1.43835">
        <ele>61</ele>
        <time>2022-04-07T16:19:07+02:00</time>
      </trkpt>
      <trkpt lat="48.85825" lon="1.43869">
        <ele>63</ele>
        <time>2022-04-07T16:20:02+02:00</time>
      </trkpt>
      <trkpt lat="48.85841" lon="1.43898">
        <ele>63</ele>
        <time>2022-04-07T16:20:46+02:00</time>
      </trkpt>
      <trkpt lat="48.8582" lon="1.43886">
        <ele>63</ele>
        <time>2022-04-07T16:21:10+02:00</time>
      </trkpt>
      <trkpt lat="48.85809" lon="1.43916">
        <ele>63</ele>
        <time>2022-04-07T16:22:43+02:00</time>
      </trkpt>
      <trkpt lat="48.85809" lon="1.43951">
        <ele>63</ele>
        <time>2022-04-07T16:23:06+02:00</time>
      </trkpt>
      <trkpt lat="48.85814" lon="1.43984">
        <ele>63</ele>
        <time>2022-04-07T16:23:51+02:00</time>
      </trkpt>
      <trkpt lat="48.85813" lon="1.4402">
        <ele>64</ele>
        <time>2022-04-07T16:24:17+02:00</time>
      </trkpt>
      <trkpt lat="48.85795" lon="1.4404">
        <ele>63</ele>
        <time>2022-04-07T16:24:53+02:00</time>
      </trkpt>
      <trkpt lat="48.858" lon="1.44074">
        <ele>64</ele>
        <time>2022-04-07T16:25:27+02:00</time>
      </trkpt>
    </trkseg>
  </trk>
</gpx>